<?xml version="1.0" encoding="UTF-8" standalone="no" ?>
<gpx xmlns="http://www.topografix.com/GPX/1/1" xmlns:xsi="http://www.w3.org/2001/XMLSchema-instance" xsi:schemaLocation="http://www.topografix.com/GPX/1/1 http://www.topografix.com/GPX/1/1/gpx.xsd" version="1.1" creator="VisuGPX - https://www.visugpx.com">
  <metadata>
    <name>ST_RAD- INI_12km  -300</name>
    <desc><![CDATA[sortie de 12km  -300]]></desc>
  </metadata>
  <trk>
    <name><![CDATA[st RA-IN 12km]]></name>
    <trkseg>
      <trkpt lat="44.33549" lon="2.63101">
        <ele>651.9111328</ele>
        <time>2014-08-09T08:27:57Z</time>
      </trkpt>
      <trkpt lat="44.33536" lon="2.63122">
        <ele>661.5244141</ele>
        <time>2014-08-09T08:28:03Z</time>
      </trkpt>
      <trkpt lat="44.33533" lon="2.63137">
        <ele>657.1984863</ele>
        <time>2014-08-09T08:28:07Z</time>
      </trkpt>
      <trkpt lat="44.3353" lon="2.63142">
        <ele>656.7177734</ele>
        <time>2014-08-09T08:28:09Z</time>
      </trkpt>
      <trkpt lat="44.33523" lon="2.63162">
        <ele>654.795166</ele>
        <time>2014-08-09T08:28:15Z</time>
      </trkpt>
      <trkpt lat="44.33519" lon="2.63179">
        <ele>654.3146973</ele>
        <time>2014-08-09T08:28:20Z</time>
      </trkpt>
      <trkpt lat="44.33514" lon="2.63198">
        <ele>653.8339844</ele>
        <time>2014-08-09T08:28:25Z</time>
      </trkpt>
      <trkpt lat="44.33509" lon="2.63214">
        <ele>655.7565918</ele>
        <time>2014-08-09T08:28:29Z</time>
      </trkpt>
      <trkpt lat="44.33504" lon="2.63233">
        <ele>656.7177734</ele>
        <time>2014-08-09T08:28:34Z</time>
      </trkpt>
      <trkpt lat="44.335" lon="2.63248">
        <ele>657.1984863</ele>
        <time>2014-08-09T08:28:38Z</time>
      </trkpt>
      <trkpt lat="44.33494" lon="2.63265">
        <ele>658.6403809</ele>
        <time>2014-08-09T08:28:42Z</time>
      </trkpt>
      <trkpt lat="44.33489" lon="2.63282">
        <ele>657.1984863</ele>
        <time>2014-08-09T08:28:47Z</time>
      </trkpt>
      <trkpt lat="44.33483" lon="2.63303">
        <ele>656.7177734</ele>
        <time>2014-08-09T08:28:53Z</time>
      </trkpt>
      <trkpt lat="44.3348" lon="2.63317">
        <ele>656.7177734</ele>
        <time>2014-08-09T08:28:57Z</time>
      </trkpt>
      <trkpt lat="44.33477" lon="2.6333">
        <ele>655.7565918</ele>
        <time>2014-08-09T08:29:01Z</time>
      </trkpt>
      <trkpt lat="44.33473" lon="2.63346">
        <ele>655.2758789</ele>
        <time>2014-08-09T08:29:05Z</time>
      </trkpt>
      <trkpt lat="44.33469" lon="2.63364">
        <ele>656.2370605</ele>
        <time>2014-08-09T08:29:10Z</time>
      </trkpt>
      <trkpt lat="44.33468" lon="2.63381">
        <ele>655.7565918</ele>
        <time>2014-08-09T08:29:14Z</time>
      </trkpt>
      <trkpt lat="44.33467" lon="2.634">
        <ele>655.2758789</ele>
        <time>2014-08-09T08:29:19Z</time>
      </trkpt>
      <trkpt lat="44.33468" lon="2.63413">
        <ele>651.9111328</ele>
        <time>2014-08-09T08:29:23Z</time>
      </trkpt>
      <trkpt lat="44.33473" lon="2.63431">
        <ele>641.8173828</ele>
        <time>2014-08-09T08:29:28Z</time>
      </trkpt>
      <trkpt lat="44.33473" lon="2.63434">
        <ele>641.8173828</ele>
        <time>2014-08-09T08:29:29Z</time>
      </trkpt>
      <trkpt lat="44.33464" lon="2.63462">
        <ele>642.7788086</ele>
        <time>2014-08-09T08:29:36Z</time>
      </trkpt>
      <trkpt lat="44.33457" lon="2.63479">
        <ele>643.7399902</ele>
        <time>2014-08-09T08:29:41Z</time>
      </trkpt>
      <trkpt lat="44.3345" lon="2.63503">
        <ele>643.7399902</ele>
        <time>2014-08-09T08:29:48Z</time>
      </trkpt>
      <trkpt lat="44.33444" lon="2.63522">
        <ele>643.7399902</ele>
        <time>2014-08-09T08:29:53Z</time>
      </trkpt>
      <trkpt lat="44.3344" lon="2.63537">
        <ele>644.2207031</ele>
        <time>2014-08-09T08:29:57Z</time>
      </trkpt>
      <trkpt lat="44.33439" lon="2.63559">
        <ele>644.7011719</ele>
        <time>2014-08-09T08:30:03Z</time>
      </trkpt>
      <trkpt lat="44.33436" lon="2.63572">
        <ele>644.7011719</ele>
        <time>2014-08-09T08:30:07Z</time>
      </trkpt>
      <trkpt lat="44.33429" lon="2.63587">
        <ele>643.2592773</ele>
        <time>2014-08-09T08:30:12Z</time>
      </trkpt>
      <trkpt lat="44.33417" lon="2.63603">
        <ele>641.8173828</ele>
        <time>2014-08-09T08:30:19Z</time>
      </trkpt>
      <trkpt lat="44.33411" lon="2.63613">
        <ele>639.4140625</ele>
        <time>2014-08-09T08:30:24Z</time>
      </trkpt>
      <trkpt lat="44.33405" lon="2.63621">
        <ele>637.972168</ele>
        <time>2014-08-09T08:30:28Z</time>
      </trkpt>
      <trkpt lat="44.33396" lon="2.63637">
        <ele>638.4528809</ele>
        <time>2014-08-09T08:30:36Z</time>
      </trkpt>
      <trkpt lat="44.33387" lon="2.6365">
        <ele>641.8173828</ele>
        <time>2014-08-09T08:30:43Z</time>
      </trkpt>
      <trkpt lat="44.33379" lon="2.63663">
        <ele>644.2207031</ele>
        <time>2014-08-09T08:30:49Z</time>
      </trkpt>
      <trkpt lat="44.33371" lon="2.63675">
        <ele>646.6240234</ele>
        <time>2014-08-09T08:30:55Z</time>
      </trkpt>
      <trkpt lat="44.33363" lon="2.63689">
        <ele>647.5852051</ele>
        <time>2014-08-09T08:31:01Z</time>
      </trkpt>
      <trkpt lat="44.33359" lon="2.63697">
        <ele>648.5463867</ele>
        <time>2014-08-09T08:31:05Z</time>
      </trkpt>
      <trkpt lat="44.33356" lon="2.63708">
        <ele>650.4692383</ele>
        <time>2014-08-09T08:31:10Z</time>
      </trkpt>
      <trkpt lat="44.33351" lon="2.63723">
        <ele>650.949707</ele>
        <time>2014-08-09T08:31:15Z</time>
      </trkpt>
      <trkpt lat="44.33349" lon="2.63735">
        <ele>651.4304199</ele>
        <time>2014-08-09T08:31:19Z</time>
      </trkpt>
      <trkpt lat="44.33349" lon="2.63738">
        <ele>651.9111328</ele>
        <time>2014-08-09T08:31:20Z</time>
      </trkpt>
      <trkpt lat="44.33342" lon="2.63759">
        <ele>655.7565918</ele>
        <time>2014-08-09T08:31:27Z</time>
      </trkpt>
      <trkpt lat="44.33336" lon="2.63776">
        <ele>657.1984863</ele>
        <time>2014-08-09T08:31:33Z</time>
      </trkpt>
      <trkpt lat="44.33331" lon="2.6379">
        <ele>658.6403809</ele>
        <time>2014-08-09T08:31:38Z</time>
      </trkpt>
      <trkpt lat="44.33326" lon="2.63805">
        <ele>659.6018066</ele>
        <time>2014-08-09T08:31:43Z</time>
      </trkpt>
      <trkpt lat="44.3332" lon="2.63824">
        <ele>661.5244141</ele>
        <time>2014-08-09T08:31:50Z</time>
      </trkpt>
      <trkpt lat="44.33318" lon="2.63844">
        <ele>660.0822754</ele>
        <time>2014-08-09T08:31:57Z</time>
      </trkpt>
      <trkpt lat="44.33315" lon="2.63863">
        <ele>659.6018066</ele>
        <time>2014-08-09T08:32:03Z</time>
      </trkpt>
      <trkpt lat="44.33313" lon="2.63877">
        <ele>659.6018066</ele>
        <time>2014-08-09T08:32:07Z</time>
      </trkpt>
      <trkpt lat="44.3331" lon="2.63894">
        <ele>659.1210938</ele>
        <time>2014-08-09T08:32:13Z</time>
      </trkpt>
      <trkpt lat="44.33306" lon="2.63912">
        <ele>659.1210938</ele>
        <time>2014-08-09T08:32:19Z</time>
      </trkpt>
      <trkpt lat="44.33303" lon="2.63926">
        <ele>659.6018066</ele>
        <time>2014-08-09T08:32:24Z</time>
      </trkpt>
      <trkpt lat="44.333" lon="2.63942">
        <ele>660.5629883</ele>
        <time>2014-08-09T08:32:29Z</time>
      </trkpt>
      <trkpt lat="44.33299" lon="2.63958">
        <ele>661.5244141</ele>
        <time>2014-08-09T08:32:34Z</time>
      </trkpt>
      <trkpt lat="44.33297" lon="2.63979">
        <ele>661.5244141</ele>
        <time>2014-08-09T08:32:40Z</time>
      </trkpt>
      <trkpt lat="44.33295" lon="2.63993">
        <ele>661.5244141</ele>
        <time>2014-08-09T08:32:44Z</time>
      </trkpt>
      <trkpt lat="44.33291" lon="2.6401">
        <ele>662.005127</ele>
        <time>2014-08-09T08:32:49Z</time>
      </trkpt>
      <trkpt lat="44.33285" lon="2.64031">
        <ele>662.005127</ele>
        <time>2014-08-09T08:32:55Z</time>
      </trkpt>
      <trkpt lat="44.3328" lon="2.64055">
        <ele>662.4855957</ele>
        <time>2014-08-09T08:33:02Z</time>
      </trkpt>
      <trkpt lat="44.33279" lon="2.64074">
        <ele>662.4855957</ele>
        <time>2014-08-09T08:33:07Z</time>
      </trkpt>
      <trkpt lat="44.33276" lon="2.64096">
        <ele>662.9663086</ele>
        <time>2014-08-09T08:33:13Z</time>
      </trkpt>
      <trkpt lat="44.33271" lon="2.64117">
        <ele>662.9663086</ele>
        <time>2014-08-09T08:33:19Z</time>
      </trkpt>
      <trkpt lat="44.33268" lon="2.64133">
        <ele>664.4082031</ele>
        <time>2014-08-09T08:33:24Z</time>
      </trkpt>
      <trkpt lat="44.33263" lon="2.64149">
        <ele>665.8503418</ele>
        <time>2014-08-09T08:33:29Z</time>
      </trkpt>
      <trkpt lat="44.33258" lon="2.64174">
        <ele>666.8115234</ele>
        <time>2014-08-09T08:33:36Z</time>
      </trkpt>
      <trkpt lat="44.33253" lon="2.64194">
        <ele>667.7727051</ele>
        <time>2014-08-09T08:33:42Z</time>
      </trkpt>
      <trkpt lat="44.33246" lon="2.64213">
        <ele>668.734375</ele>
        <time>2014-08-09T08:33:48Z</time>
      </trkpt>
      <trkpt lat="44.33237" lon="2.64235">
        <ele>669.2150879</ele>
        <time>2014-08-09T08:33:55Z</time>
      </trkpt>
      <trkpt lat="44.3323" lon="2.64257">
        <ele>669.6958008</ele>
        <time>2014-08-09T08:34:02Z</time>
      </trkpt>
      <trkpt lat="44.33225" lon="2.64272">
        <ele>668.734375</ele>
        <time>2014-08-09T08:34:07Z</time>
      </trkpt>
      <trkpt lat="44.33219" lon="2.64288">
        <ele>667.7727051</ele>
        <time>2014-08-09T08:34:12Z</time>
      </trkpt>
      <trkpt lat="44.33214" lon="2.643">
        <ele>668.2536621</ele>
        <time>2014-08-09T08:34:16Z</time>
      </trkpt>
      <trkpt lat="44.33209" lon="2.64313">
        <ele>668.734375</ele>
        <time>2014-08-09T08:34:20Z</time>
      </trkpt>
      <trkpt lat="44.33201" lon="2.6433">
        <ele>669.6958008</ele>
        <time>2014-08-09T08:34:26Z</time>
      </trkpt>
      <trkpt lat="44.33194" lon="2.64349">
        <ele>669.6958008</ele>
        <time>2014-08-09T08:34:32Z</time>
      </trkpt>
      <trkpt lat="44.33189" lon="2.64364">
        <ele>669.6958008</ele>
        <time>2014-08-09T08:34:37Z</time>
      </trkpt>
      <trkpt lat="44.33185" lon="2.64379">
        <ele>670.6569824</ele>
        <time>2014-08-09T08:34:42Z</time>
      </trkpt>
      <trkpt lat="44.33178" lon="2.64397">
        <ele>671.6181641</ele>
        <time>2014-08-09T08:34:48Z</time>
      </trkpt>
      <trkpt lat="44.33172" lon="2.64417">
        <ele>672.5795898</ele>
        <time>2014-08-09T08:34:54Z</time>
      </trkpt>
      <trkpt lat="44.33167" lon="2.64437">
        <ele>674.0214844</ele>
        <time>2014-08-09T08:35:00Z</time>
      </trkpt>
      <trkpt lat="44.33162" lon="2.64459">
        <ele>674.0214844</ele>
        <time>2014-08-09T08:35:06Z</time>
      </trkpt>
      <trkpt lat="44.33155" lon="2.64479">
        <ele>674.9829102</ele>
        <time>2014-08-09T08:35:12Z</time>
      </trkpt>
      <trkpt lat="44.33149" lon="2.64494">
        <ele>674.9829102</ele>
        <time>2014-08-09T08:35:17Z</time>
      </trkpt>
      <trkpt lat="44.33139" lon="2.64513">
        <ele>676.9055176</ele>
        <time>2014-08-09T08:35:23Z</time>
      </trkpt>
      <trkpt lat="44.33133" lon="2.64529">
        <ele>678.3474121</ele>
        <time>2014-08-09T08:35:28Z</time>
      </trkpt>
      <trkpt lat="44.33128" lon="2.64547">
        <ele>678.828125</ele>
        <time>2014-08-09T08:35:33Z</time>
      </trkpt>
      <trkpt lat="44.33121" lon="2.64567">
        <ele>679.3085938</ele>
        <time>2014-08-09T08:35:39Z</time>
      </trkpt>
      <trkpt lat="44.3311" lon="2.64587">
        <ele>680.2700195</ele>
        <time>2014-08-09T08:35:45Z</time>
      </trkpt>
      <trkpt lat="44.33105" lon="2.64605">
        <ele>681.2314453</ele>
        <time>2014-08-09T08:35:50Z</time>
      </trkpt>
      <trkpt lat="44.33102" lon="2.6463">
        <ele>681.2314453</ele>
        <time>2014-08-09T08:35:56Z</time>
      </trkpt>
      <trkpt lat="44.33098" lon="2.64647">
        <ele>682.192627</ele>
        <time>2014-08-09T08:36:01Z</time>
      </trkpt>
      <trkpt lat="44.33093" lon="2.64667">
        <ele>683.1538086</ele>
        <time>2014-08-09T08:36:06Z</time>
      </trkpt>
      <trkpt lat="44.33089" lon="2.64691">
        <ele>682.192627</ele>
        <time>2014-08-09T08:36:12Z</time>
      </trkpt>
      <trkpt lat="44.33086" lon="2.64706">
        <ele>680.7507324</ele>
        <time>2014-08-09T08:36:16Z</time>
      </trkpt>
      <trkpt lat="44.33081" lon="2.64731">
        <ele>677.8666992</ele>
        <time>2014-08-09T08:36:23Z</time>
      </trkpt>
      <trkpt lat="44.33076" lon="2.64748">
        <ele>676.4248047</ele>
        <time>2014-08-09T08:36:28Z</time>
      </trkpt>
      <trkpt lat="44.33072" lon="2.6477">
        <ele>674.5021973</ele>
        <time>2014-08-09T08:36:34Z</time>
      </trkpt>
      <trkpt lat="44.3307" lon="2.64794">
        <ele>672.5795898</ele>
        <time>2014-08-09T08:36:40Z</time>
      </trkpt>
      <trkpt lat="44.33068" lon="2.64817">
        <ele>670.6569824</ele>
        <time>2014-08-09T08:36:46Z</time>
      </trkpt>
      <trkpt lat="44.33066" lon="2.64839">
        <ele>666.8115234</ele>
        <time>2014-08-09T08:36:52Z</time>
      </trkpt>
      <trkpt lat="44.33064" lon="2.64852">
        <ele>664.888916</ele>
        <time>2014-08-09T08:36:57Z</time>
      </trkpt>
      <trkpt lat="44.33053" lon="2.64854">
        <ele>663.9274902</ele>
        <time>2014-08-09T08:37:02Z</time>
      </trkpt>
      <trkpt lat="44.33039" lon="2.6485">
        <ele>662.005127</ele>
        <time>2014-08-09T08:37:07Z</time>
      </trkpt>
      <trkpt lat="44.33025" lon="2.64846">
        <ele>661.0437012</ele>
        <time>2014-08-09T08:37:12Z</time>
      </trkpt>
      <trkpt lat="44.33008" lon="2.64842">
        <ele>662.005127</ele>
        <time>2014-08-09T08:37:18Z</time>
      </trkpt>
      <trkpt lat="44.32993" lon="2.64836">
        <ele>661.0437012</ele>
        <time>2014-08-09T08:37:24Z</time>
      </trkpt>
      <trkpt lat="44.32979" lon="2.64834">
        <ele>661.5244141</ele>
        <time>2014-08-09T08:37:29Z</time>
      </trkpt>
      <trkpt lat="44.32967" lon="2.6483">
        <ele>662.005127</ele>
        <time>2014-08-09T08:37:33Z</time>
      </trkpt>
      <trkpt lat="44.32954" lon="2.64826">
        <ele>661.0437012</ele>
        <time>2014-08-09T08:37:38Z</time>
      </trkpt>
      <trkpt lat="44.32938" lon="2.64821">
        <ele>662.005127</ele>
        <time>2014-08-09T08:37:43Z</time>
      </trkpt>
      <trkpt lat="44.32922" lon="2.64818">
        <ele>662.005127</ele>
        <time>2014-08-09T08:37:48Z</time>
      </trkpt>
      <trkpt lat="44.32907" lon="2.64814">
        <ele>662.9663086</ele>
        <time>2014-08-09T08:37:53Z</time>
      </trkpt>
      <trkpt lat="44.32892" lon="2.64811">
        <ele>664.4082031</ele>
        <time>2014-08-09T08:37:58Z</time>
      </trkpt>
      <trkpt lat="44.32881" lon="2.6481">
        <ele>664.4082031</ele>
        <time>2014-08-09T08:38:02Z</time>
      </trkpt>
      <trkpt lat="44.32871" lon="2.64807">
        <ele>663.9274902</ele>
        <time>2014-08-09T08:38:06Z</time>
      </trkpt>
      <trkpt lat="44.3286" lon="2.64806">
        <ele>663.9274902</ele>
        <time>2014-08-09T08:38:10Z</time>
      </trkpt>
      <trkpt lat="44.32846" lon="2.64805">
        <ele>662.9663086</ele>
        <time>2014-08-09T08:38:15Z</time>
      </trkpt>
      <trkpt lat="44.3283" lon="2.64803">
        <ele>662.005127</ele>
        <time>2014-08-09T08:38:21Z</time>
      </trkpt>
      <trkpt lat="44.32818" lon="2.64802">
        <ele>662.4855957</ele>
        <time>2014-08-09T08:38:26Z</time>
      </trkpt>
      <trkpt lat="44.32805" lon="2.64799">
        <ele>661.0437012</ele>
        <time>2014-08-09T08:38:31Z</time>
      </trkpt>
      <trkpt lat="44.32791" lon="2.64796">
        <ele>660.5629883</ele>
        <time>2014-08-09T08:38:36Z</time>
      </trkpt>
      <trkpt lat="44.32776" lon="2.64795">
        <ele>659.6018066</ele>
        <time>2014-08-09T08:38:41Z</time>
      </trkpt>
      <trkpt lat="44.32762" lon="2.64793">
        <ele>658.1599121</ele>
        <time>2014-08-09T08:38:46Z</time>
      </trkpt>
      <trkpt lat="44.32748" lon="2.6479">
        <ele>658.1599121</ele>
        <time>2014-08-09T08:38:50Z</time>
      </trkpt>
      <trkpt lat="44.32734" lon="2.64787">
        <ele>654.3146973</ele>
        <time>2014-08-09T08:38:55Z</time>
      </trkpt>
      <trkpt lat="44.32729" lon="2.64787">
        <ele>653.8339844</ele>
        <time>2014-08-09T08:38:57Z</time>
      </trkpt>
      <trkpt lat="44.3272" lon="2.6479">
        <ele>652.3918457</ele>
        <time>2014-08-09T08:39:01Z</time>
      </trkpt>
      <trkpt lat="44.32706" lon="2.64782">
        <ele>650.4692383</ele>
        <time>2014-08-09T08:39:07Z</time>
      </trkpt>
      <trkpt lat="44.32693" lon="2.6478">
        <ele>648.5463867</ele>
        <time>2014-08-09T08:39:11Z</time>
      </trkpt>
      <trkpt lat="44.32684" lon="2.6478">
        <ele>646.6240234</ele>
        <time>2014-08-09T08:39:16Z</time>
      </trkpt>
      <trkpt lat="44.3267" lon="2.64781">
        <ele>645.1818848</ele>
        <time>2014-08-09T08:39:21Z</time>
      </trkpt>
      <trkpt lat="44.32656" lon="2.64781">
        <ele>644.7011719</ele>
        <time>2014-08-09T08:39:26Z</time>
      </trkpt>
      <trkpt lat="44.32643" lon="2.64783">
        <ele>644.7011719</ele>
        <time>2014-08-09T08:39:30Z</time>
      </trkpt>
      <trkpt lat="44.32632" lon="2.64788">
        <ele>645.6625977</ele>
        <time>2014-08-09T08:39:35Z</time>
      </trkpt>
      <trkpt lat="44.32621" lon="2.64796">
        <ele>646.6240234</ele>
        <time>2014-08-09T08:39:40Z</time>
      </trkpt>
      <trkpt lat="44.32612" lon="2.64799">
        <ele>648.065918</ele>
        <time>2014-08-09T08:39:44Z</time>
      </trkpt>
      <trkpt lat="44.32603" lon="2.64802">
        <ele>648.5463867</ele>
        <time>2014-08-09T08:39:48Z</time>
      </trkpt>
      <trkpt lat="44.32594" lon="2.64801">
        <ele>649.0270996</ele>
        <time>2014-08-09T08:39:53Z</time>
      </trkpt>
      <trkpt lat="44.32583" lon="2.648">
        <ele>649.9885254</ele>
        <time>2014-08-09T08:39:58Z</time>
      </trkpt>
      <trkpt lat="44.32573" lon="2.64802">
        <ele>651.9111328</ele>
        <time>2014-08-09T08:40:03Z</time>
      </trkpt>
      <trkpt lat="44.32572" lon="2.64802">
        <ele>651.9111328</ele>
        <time>2014-08-09T08:40:04Z</time>
      </trkpt>
      <trkpt lat="44.32558" lon="2.64801">
        <ele>649.9885254</ele>
        <time>2014-08-09T08:40:10Z</time>
      </trkpt>
      <trkpt lat="44.32545" lon="2.64801">
        <ele>651.4304199</ele>
        <time>2014-08-09T08:40:15Z</time>
      </trkpt>
      <trkpt lat="44.3253" lon="2.64801">
        <ele>652.3918457</ele>
        <time>2014-08-09T08:40:21Z</time>
      </trkpt>
      <trkpt lat="44.32518" lon="2.64801">
        <ele>652.3918457</ele>
        <time>2014-08-09T08:40:26Z</time>
      </trkpt>
      <trkpt lat="44.32507" lon="2.64799">
        <ele>654.3146973</ele>
        <time>2014-08-09T08:40:31Z</time>
      </trkpt>
      <trkpt lat="44.32494" lon="2.64797">
        <ele>654.3146973</ele>
        <time>2014-08-09T08:40:36Z</time>
      </trkpt>
      <trkpt lat="44.32484" lon="2.64792">
        <ele>656.2370605</ele>
        <time>2014-08-09T08:40:40Z</time>
      </trkpt>
      <trkpt lat="44.32473" lon="2.64786">
        <ele>658.6403809</ele>
        <time>2014-08-09T08:40:45Z</time>
      </trkpt>
      <trkpt lat="44.32462" lon="2.64781">
        <ele>659.1210938</ele>
        <time>2014-08-09T08:40:50Z</time>
      </trkpt>
      <trkpt lat="44.32449" lon="2.64776">
        <ele>660.5629883</ele>
        <time>2014-08-09T08:40:56Z</time>
      </trkpt>
      <trkpt lat="44.3244" lon="2.64773">
        <ele>660.5629883</ele>
        <time>2014-08-09T08:41:00Z</time>
      </trkpt>
      <trkpt lat="44.32428" lon="2.64767">
        <ele>660.0822754</ele>
        <time>2014-08-09T08:41:05Z</time>
      </trkpt>
      <trkpt lat="44.32415" lon="2.6476">
        <ele>661.5244141</ele>
        <time>2014-08-09T08:41:11Z</time>
      </trkpt>
      <trkpt lat="44.32405" lon="2.64753">
        <ele>662.4855957</ele>
        <time>2014-08-09T08:41:16Z</time>
      </trkpt>
      <trkpt lat="44.32396" lon="2.64748">
        <ele>663.4470215</ele>
        <time>2014-08-09T08:41:20Z</time>
      </trkpt>
      <trkpt lat="44.32383" lon="2.64746">
        <ele>665.3696289</ele>
        <time>2014-08-09T08:41:25Z</time>
      </trkpt>
      <trkpt lat="44.3237" lon="2.64745">
        <ele>666.8115234</ele>
        <time>2014-08-09T08:41:30Z</time>
      </trkpt>
      <trkpt lat="44.32356" lon="2.64747">
        <ele>667.7727051</ele>
        <time>2014-08-09T08:41:36Z</time>
      </trkpt>
      <trkpt lat="44.32345" lon="2.64753">
        <ele>669.2150879</ele>
        <time>2014-08-09T08:41:41Z</time>
      </trkpt>
      <trkpt lat="44.32337" lon="2.64764">
        <ele>669.6958008</ele>
        <time>2014-08-09T08:41:46Z</time>
      </trkpt>
      <trkpt lat="44.32324" lon="2.64783">
        <ele>671.6181641</ele>
        <time>2014-08-09T08:41:53Z</time>
      </trkpt>
      <trkpt lat="44.32314" lon="2.64802">
        <ele>674.0214844</ele>
        <time>2014-08-09T08:42:00Z</time>
      </trkpt>
      <trkpt lat="44.32304" lon="2.64819">
        <ele>676.4248047</ele>
        <time>2014-08-09T08:42:06Z</time>
      </trkpt>
      <trkpt lat="44.32303" lon="2.64822">
        <ele>676.9055176</ele>
        <time>2014-08-09T08:42:07Z</time>
      </trkpt>
      <trkpt lat="44.32297" lon="2.64821">
        <ele>677.8666992</ele>
        <time>2014-08-09T08:42:10Z</time>
      </trkpt>
      <trkpt lat="44.32293" lon="2.64809">
        <ele>676.9055176</ele>
        <time>2014-08-09T08:42:14Z</time>
      </trkpt>
      <trkpt lat="44.32288" lon="2.64794">
        <ele>674.5021973</ele>
        <time>2014-08-09T08:42:19Z</time>
      </trkpt>
      <trkpt lat="44.32282" lon="2.64782">
        <ele>673.5410156</ele>
        <time>2014-08-09T08:42:23Z</time>
      </trkpt>
      <trkpt lat="44.32277" lon="2.64762">
        <ele>673.0603027</ele>
        <time>2014-08-09T08:42:29Z</time>
      </trkpt>
      <trkpt lat="44.32272" lon="2.64745">
        <ele>674.5021973</ele>
        <time>2014-08-09T08:42:34Z</time>
      </trkpt>
      <trkpt lat="44.32268" lon="2.64729">
        <ele>675.9440918</ele>
        <time>2014-08-09T08:42:39Z</time>
      </trkpt>
      <trkpt lat="44.32262" lon="2.6471">
        <ele>675.9440918</ele>
        <time>2014-08-09T08:42:45Z</time>
      </trkpt>
      <trkpt lat="44.32253" lon="2.64694">
        <ele>675.4633789</ele>
        <time>2014-08-09T08:42:51Z</time>
      </trkpt>
      <trkpt lat="44.32244" lon="2.64685">
        <ele>674.5021973</ele>
        <time>2014-08-09T08:42:56Z</time>
      </trkpt>
      <trkpt lat="44.32233" lon="2.64675">
        <ele>673.5410156</ele>
        <time>2014-08-09T08:43:02Z</time>
      </trkpt>
      <trkpt lat="44.32224" lon="2.6467">
        <ele>672.5795898</ele>
        <time>2014-08-09T08:43:06Z</time>
      </trkpt>
      <trkpt lat="44.32213" lon="2.64663">
        <ele>672.098877</ele>
        <time>2014-08-09T08:43:11Z</time>
      </trkpt>
      <trkpt lat="44.32201" lon="2.64658">
        <ele>673.0603027</ele>
        <time>2014-08-09T08:43:16Z</time>
      </trkpt>
      <trkpt lat="44.32189" lon="2.64654">
        <ele>674.9829102</ele>
        <time>2014-08-09T08:43:21Z</time>
      </trkpt>
      <trkpt lat="44.32175" lon="2.64651">
        <ele>677.3862305</ele>
        <time>2014-08-09T08:43:27Z</time>
      </trkpt>
      <trkpt lat="44.3216" lon="2.64649">
        <ele>679.7893066</ele>
        <time>2014-08-09T08:43:33Z</time>
      </trkpt>
      <trkpt lat="44.32146" lon="2.64645">
        <ele>681.2314453</ele>
        <time>2014-08-09T08:43:38Z</time>
      </trkpt>
      <trkpt lat="44.32132" lon="2.64642">
        <ele>683.1538086</ele>
        <time>2014-08-09T08:43:43Z</time>
      </trkpt>
      <trkpt lat="44.32117" lon="2.6464">
        <ele>684.1154785</ele>
        <time>2014-08-09T08:43:48Z</time>
      </trkpt>
      <trkpt lat="44.32104" lon="2.64635">
        <ele>684.1154785</ele>
        <time>2014-08-09T08:43:53Z</time>
      </trkpt>
      <trkpt lat="44.32089" lon="2.6463">
        <ele>684.1154785</ele>
        <time>2014-08-09T08:43:58Z</time>
      </trkpt>
      <trkpt lat="44.3207" lon="2.64624">
        <ele>683.1538086</ele>
        <time>2014-08-09T08:44:05Z</time>
      </trkpt>
      <trkpt lat="44.32051" lon="2.64619">
        <ele>679.3085938</ele>
        <time>2014-08-09T08:44:12Z</time>
      </trkpt>
      <trkpt lat="44.32034" lon="2.64615">
        <ele>677.8666992</ele>
        <time>2014-08-09T08:44:18Z</time>
      </trkpt>
      <trkpt lat="44.3202" lon="2.64615">
        <ele>675.9440918</ele>
        <time>2014-08-09T08:44:23Z</time>
      </trkpt>
      <trkpt lat="44.32009" lon="2.64618">
        <ele>674.5021973</ele>
        <time>2014-08-09T08:44:27Z</time>
      </trkpt>
      <trkpt lat="44.31998" lon="2.64614">
        <ele>673.0603027</ele>
        <time>2014-08-09T08:44:31Z</time>
      </trkpt>
      <trkpt lat="44.31984" lon="2.64611">
        <ele>672.098877</ele>
        <time>2014-08-09T08:44:36Z</time>
      </trkpt>
      <trkpt lat="44.3197" lon="2.64608">
        <ele>672.098877</ele>
        <time>2014-08-09T08:44:41Z</time>
      </trkpt>
      <trkpt lat="44.31959" lon="2.64606">
        <ele>672.5795898</ele>
        <time>2014-08-09T08:44:44Z</time>
      </trkpt>
      <trkpt lat="44.31949" lon="2.64604">
        <ele>671.6181641</ele>
        <time>2014-08-09T08:44:48Z</time>
      </trkpt>
      <trkpt lat="44.3194" lon="2.64603">
        <ele>670.1762695</ele>
        <time>2014-08-09T08:44:52Z</time>
      </trkpt>
      <trkpt lat="44.31928" lon="2.64604">
        <ele>668.734375</ele>
        <time>2014-08-09T08:44:56Z</time>
      </trkpt>
      <trkpt lat="44.3191" lon="2.64606">
        <ele>667.7727051</ele>
        <time>2014-08-09T08:45:02Z</time>
      </trkpt>
      <trkpt lat="44.31894" lon="2.64609">
        <ele>668.734375</ele>
        <time>2014-08-09T08:45:07Z</time>
      </trkpt>
      <trkpt lat="44.31879" lon="2.64608">
        <ele>668.2536621</ele>
        <time>2014-08-09T08:45:12Z</time>
      </trkpt>
      <trkpt lat="44.31874" lon="2.64608">
        <ele>667.7727051</ele>
        <time>2014-08-09T08:45:14Z</time>
      </trkpt>
      <trkpt lat="44.31866" lon="2.64605">
        <ele>666.8115234</ele>
        <time>2014-08-09T08:45:18Z</time>
      </trkpt>
      <trkpt lat="44.31859" lon="2.646">
        <ele>665.3696289</ele>
        <time>2014-08-09T08:45:21Z</time>
      </trkpt>
      <trkpt lat="44.3185" lon="2.64594">
        <ele>665.8503418</ele>
        <time>2014-08-09T08:45:24Z</time>
      </trkpt>
      <trkpt lat="44.3184" lon="2.64578">
        <ele>664.888916</ele>
        <time>2014-08-09T08:45:30Z</time>
      </trkpt>
      <trkpt lat="44.31836" lon="2.64572">
        <ele>664.4082031</ele>
        <time>2014-08-09T08:45:32Z</time>
      </trkpt>
      <trkpt lat="44.31829" lon="2.64559">
        <ele>662.4855957</ele>
        <time>2014-08-09T08:45:37Z</time>
      </trkpt>
      <trkpt lat="44.31821" lon="2.64551">
        <ele>662.005127</ele>
        <time>2014-08-09T08:45:40Z</time>
      </trkpt>
      <trkpt lat="44.31807" lon="2.64539">
        <ele>662.005127</ele>
        <time>2014-08-09T08:45:46Z</time>
      </trkpt>
      <trkpt lat="44.31798" lon="2.64531">
        <ele>661.0437012</ele>
        <time>2014-08-09T08:45:50Z</time>
      </trkpt>
      <trkpt lat="44.31793" lon="2.64528">
        <ele>660.0822754</ele>
        <time>2014-08-09T08:45:52Z</time>
      </trkpt>
      <trkpt lat="44.31781" lon="2.64523">
        <ele>660.0822754</ele>
        <time>2014-08-09T08:45:56Z</time>
      </trkpt>
      <trkpt lat="44.31769" lon="2.64519">
        <ele>660.5629883</ele>
        <time>2014-08-09T08:46:00Z</time>
      </trkpt>
      <trkpt lat="44.31763" lon="2.64519">
        <ele>660.5629883</ele>
        <time>2014-08-09T08:46:03Z</time>
      </trkpt>
      <trkpt lat="44.31748" lon="2.64518">
        <ele>659.6018066</ele>
        <time>2014-08-09T08:46:08Z</time>
      </trkpt>
      <trkpt lat="44.31738" lon="2.64516">
        <ele>657.1984863</ele>
        <time>2014-08-09T08:46:12Z</time>
      </trkpt>
      <trkpt lat="44.31723" lon="2.64514">
        <ele>656.7177734</ele>
        <time>2014-08-09T08:46:17Z</time>
      </trkpt>
      <trkpt lat="44.31709" lon="2.64512">
        <ele>655.7565918</ele>
        <time>2014-08-09T08:46:22Z</time>
      </trkpt>
      <trkpt lat="44.31695" lon="2.64514">
        <ele>655.2758789</ele>
        <time>2014-08-09T08:46:26Z</time>
      </trkpt>
      <trkpt lat="44.31676" lon="2.64512">
        <ele>653.3532715</ele>
        <time>2014-08-09T08:46:32Z</time>
      </trkpt>
      <trkpt lat="44.31666" lon="2.64506">
        <ele>652.3918457</ele>
        <time>2014-08-09T08:46:36Z</time>
      </trkpt>
      <trkpt lat="44.31655" lon="2.64494">
        <ele>650.949707</ele>
        <time>2014-08-09T08:46:41Z</time>
      </trkpt>
      <trkpt lat="44.3164" lon="2.64484">
        <ele>648.065918</ele>
        <time>2014-08-09T08:46:47Z</time>
      </trkpt>
      <trkpt lat="44.31629" lon="2.64491">
        <ele>646.1433105</ele>
        <time>2014-08-09T08:46:51Z</time>
      </trkpt>
      <trkpt lat="44.31624" lon="2.64502">
        <ele>645.1818848</ele>
        <time>2014-08-09T08:46:54Z</time>
      </trkpt>
      <trkpt lat="44.31613" lon="2.64526">
        <ele>643.2592773</ele>
        <time>2014-08-09T08:47:00Z</time>
      </trkpt>
      <trkpt lat="44.31603" lon="2.64544">
        <ele>643.2592773</ele>
        <time>2014-08-09T08:47:05Z</time>
      </trkpt>
      <trkpt lat="44.31592" lon="2.64558">
        <ele>643.2592773</ele>
        <time>2014-08-09T08:47:10Z</time>
      </trkpt>
      <trkpt lat="44.3158" lon="2.6457">
        <ele>643.7399902</ele>
        <time>2014-08-09T08:47:15Z</time>
      </trkpt>
      <trkpt lat="44.3157" lon="2.64582">
        <ele>644.2207031</ele>
        <time>2014-08-09T08:47:20Z</time>
      </trkpt>
      <trkpt lat="44.31567" lon="2.64588">
        <ele>644.2207031</ele>
        <time>2014-08-09T08:47:22Z</time>
      </trkpt>
      <trkpt lat="44.31568" lon="2.6461">
        <ele>644.7011719</ele>
        <time>2014-08-09T08:47:29Z</time>
      </trkpt>
      <trkpt lat="44.31568" lon="2.64627">
        <ele>644.7011719</ele>
        <time>2014-08-09T08:47:35Z</time>
      </trkpt>
      <trkpt lat="44.31567" lon="2.6464">
        <ele>644.7011719</ele>
        <time>2014-08-09T08:47:39Z</time>
      </trkpt>
      <trkpt lat="44.31566" lon="2.64646">
        <ele>645.6625977</ele>
        <time>2014-08-09T08:47:41Z</time>
      </trkpt>
      <trkpt lat="44.31564" lon="2.64655">
        <ele>646.6240234</ele>
        <time>2014-08-09T08:47:44Z</time>
      </trkpt>
      <trkpt lat="44.3156" lon="2.64668">
        <ele>648.065918</ele>
        <time>2014-08-09T08:47:49Z</time>
      </trkpt>
      <trkpt lat="44.31558" lon="2.6467">
        <ele>648.5463867</ele>
        <time>2014-08-09T08:47:50Z</time>
      </trkpt>
      <trkpt lat="44.31549" lon="2.64686">
        <ele>651.4304199</ele>
        <time>2014-08-09T08:47:57Z</time>
      </trkpt>
      <trkpt lat="44.31547" lon="2.64688">
        <ele>652.3918457</ele>
        <time>2014-08-09T08:47:59Z</time>
      </trkpt>
      <trkpt lat="44.31545" lon="2.64697">
        <ele>653.8339844</ele>
        <time>2014-08-09T08:48:04Z</time>
      </trkpt>
      <trkpt lat="44.31544" lon="2.64707">
        <ele>654.3146973</ele>
        <time>2014-08-09T08:48:07Z</time>
      </trkpt>
      <trkpt lat="44.3155" lon="2.64729">
        <ele>657.1984863</ele>
        <time>2014-08-09T08:48:14Z</time>
      </trkpt>
      <trkpt lat="44.31552" lon="2.64735">
        <ele>657.6791992</ele>
        <time>2014-08-09T08:48:16Z</time>
      </trkpt>
      <trkpt lat="44.31556" lon="2.6475">
        <ele>659.6018066</ele>
        <time>2014-08-09T08:48:22Z</time>
      </trkpt>
      <trkpt lat="44.31561" lon="2.64762">
        <ele>661.0437012</ele>
        <time>2014-08-09T08:48:27Z</time>
      </trkpt>
      <trkpt lat="44.31564" lon="2.64778">
        <ele>663.9274902</ele>
        <time>2014-08-09T08:48:33Z</time>
      </trkpt>
      <trkpt lat="44.31565" lon="2.64798">
        <ele>666.3308105</ele>
        <time>2014-08-09T08:48:40Z</time>
      </trkpt>
      <trkpt lat="44.31566" lon="2.64815">
        <ele>665.8503418</ele>
        <time>2014-08-09T08:48:46Z</time>
      </trkpt>
      <trkpt lat="44.31567" lon="2.64828">
        <ele>666.3308105</ele>
        <time>2014-08-09T08:48:51Z</time>
      </trkpt>
      <trkpt lat="44.31566" lon="2.64841">
        <ele>666.8115234</ele>
        <time>2014-08-09T08:48:56Z</time>
      </trkpt>
      <trkpt lat="44.31566" lon="2.64855">
        <ele>667.7727051</ele>
        <time>2014-08-09T08:49:01Z</time>
      </trkpt>
      <trkpt lat="44.31566" lon="2.64868">
        <ele>669.2150879</ele>
        <time>2014-08-09T08:49:06Z</time>
      </trkpt>
      <trkpt lat="44.31569" lon="2.64884">
        <ele>669.6958008</ele>
        <time>2014-08-09T08:49:12Z</time>
      </trkpt>
      <trkpt lat="44.31572" lon="2.64897">
        <ele>671.6181641</ele>
        <time>2014-08-09T08:49:17Z</time>
      </trkpt>
      <trkpt lat="44.31574" lon="2.64911">
        <ele>673.5410156</ele>
        <time>2014-08-09T08:49:22Z</time>
      </trkpt>
      <trkpt lat="44.31574" lon="2.64925">
        <ele>674.0214844</ele>
        <time>2014-08-09T08:49:27Z</time>
      </trkpt>
      <trkpt lat="44.31573" lon="2.64941">
        <ele>673.5410156</ele>
        <time>2014-08-09T08:49:32Z</time>
      </trkpt>
      <trkpt lat="44.31574" lon="2.64956">
        <ele>672.5795898</ele>
        <time>2014-08-09T08:49:37Z</time>
      </trkpt>
      <trkpt lat="44.31574" lon="2.64971">
        <ele>673.0603027</ele>
        <time>2014-08-09T08:49:42Z</time>
      </trkpt>
      <trkpt lat="44.31573" lon="2.64988">
        <ele>675.9440918</ele>
        <time>2014-08-09T08:49:48Z</time>
      </trkpt>
      <trkpt lat="44.31572" lon="2.64995">
        <ele>676.4248047</ele>
        <time>2014-08-09T08:49:52Z</time>
      </trkpt>
      <trkpt lat="44.31569" lon="2.65005">
        <ele>675.9440918</ele>
        <time>2014-08-09T08:49:56Z</time>
      </trkpt>
      <trkpt lat="44.31562" lon="2.65019">
        <ele>674.9829102</ele>
        <time>2014-08-09T08:50:01Z</time>
      </trkpt>
      <trkpt lat="44.31552" lon="2.65031">
        <ele>675.9440918</ele>
        <time>2014-08-09T08:50:07Z</time>
      </trkpt>
      <trkpt lat="44.31542" lon="2.65038">
        <ele>677.3862305</ele>
        <time>2014-08-09T08:50:12Z</time>
      </trkpt>
      <trkpt lat="44.31528" lon="2.65047">
        <ele>680.7507324</ele>
        <time>2014-08-09T08:50:18Z</time>
      </trkpt>
      <trkpt lat="44.31515" lon="2.65052">
        <ele>683.1538086</ele>
        <time>2014-08-09T08:50:23Z</time>
      </trkpt>
      <trkpt lat="44.31504" lon="2.65057">
        <ele>685.557373</ele>
        <time>2014-08-09T08:50:28Z</time>
      </trkpt>
      <trkpt lat="44.31493" lon="2.65061">
        <ele>686.5187988</ele>
        <time>2014-08-09T08:50:33Z</time>
      </trkpt>
      <trkpt lat="44.31492" lon="2.65062">
        <ele>686.9992676</ele>
        <time>2014-08-09T08:50:34Z</time>
      </trkpt>
      <trkpt lat="44.31486" lon="2.65063">
        <ele>686.0380859</ele>
        <time>2014-08-09T08:50:37Z</time>
      </trkpt>
      <trkpt lat="44.31475" lon="2.65067">
        <ele>686.5187988</ele>
        <time>2014-08-09T08:50:43Z</time>
      </trkpt>
      <trkpt lat="44.31468" lon="2.6507">
        <ele>687.9606934</ele>
        <time>2014-08-09T08:50:47Z</time>
      </trkpt>
      <trkpt lat="44.31466" lon="2.65072">
        <ele>688.4414063</ele>
        <time>2014-08-09T08:50:48Z</time>
      </trkpt>
      <trkpt lat="44.31457" lon="2.6508">
        <ele>691.3251953</ele>
        <time>2014-08-09T08:50:55Z</time>
      </trkpt>
      <trkpt lat="44.31448" lon="2.65082">
        <ele>689.8833008</ele>
        <time>2014-08-09T08:51:00Z</time>
      </trkpt>
      <trkpt lat="44.31448" lon="2.65082">
        <ele>689.8833008</ele>
        <time>2014-08-09T08:51:01Z</time>
      </trkpt>
      <trkpt lat="44.31444" lon="2.65083">
        <ele>688.9221191</ele>
        <time>2014-08-09T08:51:05Z</time>
      </trkpt>
      <trkpt lat="44.31436" lon="2.65087">
        <ele>689.8833008</ele>
        <time>2014-08-09T08:51:13Z</time>
      </trkpt>
      <trkpt lat="44.31431" lon="2.65089">
        <ele>690.3640137</ele>
        <time>2014-08-09T08:51:18Z</time>
      </trkpt>
      <trkpt lat="44.31426" lon="2.65092">
        <ele>691.3251953</ele>
        <time>2014-08-09T08:51:24Z</time>
      </trkpt>
      <trkpt lat="44.31424" lon="2.65093">
        <ele>690.8444824</ele>
        <time>2014-08-09T08:51:26Z</time>
      </trkpt>
      <trkpt lat="44.31416" lon="2.65101">
        <ele>691.8059082</ele>
        <time>2014-08-09T08:51:32Z</time>
      </trkpt>
      <trkpt lat="44.31408" lon="2.65108">
        <ele>694.6896973</ele>
        <time>2014-08-09T08:51:36Z</time>
      </trkpt>
      <trkpt lat="44.31398" lon="2.65119">
        <ele>695.1704102</ele>
        <time>2014-08-09T08:51:42Z</time>
      </trkpt>
      <trkpt lat="44.31389" lon="2.6513">
        <ele>694.6896973</ele>
        <time>2014-08-09T08:51:47Z</time>
      </trkpt>
      <trkpt lat="44.31381" lon="2.6514">
        <ele>694.6896973</ele>
        <time>2014-08-09T08:51:52Z</time>
      </trkpt>
      <trkpt lat="44.31371" lon="2.65152">
        <ele>695.1704102</ele>
        <time>2014-08-09T08:51:57Z</time>
      </trkpt>
      <trkpt lat="44.31363" lon="2.65164">
        <ele>696.1318359</ele>
        <time>2014-08-09T08:52:01Z</time>
      </trkpt>
      <trkpt lat="44.31355" lon="2.65175">
        <ele>696.1318359</ele>
        <time>2014-08-09T08:52:05Z</time>
      </trkpt>
      <trkpt lat="44.31343" lon="2.6519">
        <ele>696.6125488</ele>
        <time>2014-08-09T08:52:11Z</time>
      </trkpt>
      <trkpt lat="44.31332" lon="2.65203">
        <ele>695.651123</ele>
        <time>2014-08-09T08:52:16Z</time>
      </trkpt>
      <trkpt lat="44.31319" lon="2.65215">
        <ele>694.2092285</ele>
        <time>2014-08-09T08:52:21Z</time>
      </trkpt>
      <trkpt lat="44.31309" lon="2.65226">
        <ele>693.2478027</ele>
        <time>2014-08-09T08:52:26Z</time>
      </trkpt>
      <trkpt lat="44.31299" lon="2.65239">
        <ele>692.767334</ele>
        <time>2014-08-09T08:52:31Z</time>
      </trkpt>
      <trkpt lat="44.31289" lon="2.65249">
        <ele>691.8059082</ele>
        <time>2014-08-09T08:52:35Z</time>
      </trkpt>
      <trkpt lat="44.31287" lon="2.65251">
        <ele>691.3251953</ele>
        <time>2014-08-09T08:52:36Z</time>
      </trkpt>
      <trkpt lat="44.31277" lon="2.65267">
        <ele>689.8833008</ele>
        <time>2014-08-09T08:52:41Z</time>
      </trkpt>
      <trkpt lat="44.31275" lon="2.65269">
        <ele>689.4025879</ele>
        <time>2014-08-09T08:52:42Z</time>
      </trkpt>
      <trkpt lat="44.31261" lon="2.65285">
        <ele>687.4799805</ele>
        <time>2014-08-09T08:52:48Z</time>
      </trkpt>
      <trkpt lat="44.3125" lon="2.65298">
        <ele>686.0380859</ele>
        <time>2014-08-09T08:52:53Z</time>
      </trkpt>
      <trkpt lat="44.31241" lon="2.65308">
        <ele>684.5961914</ele>
        <time>2014-08-09T08:52:57Z</time>
      </trkpt>
      <trkpt lat="44.31228" lon="2.6532">
        <ele>681.7119141</ele>
        <time>2014-08-09T08:53:02Z</time>
      </trkpt>
      <trkpt lat="44.31214" lon="2.65336">
        <ele>680.2700195</ele>
        <time>2014-08-09T08:53:08Z</time>
      </trkpt>
      <trkpt lat="44.31206" lon="2.65348">
        <ele>678.3474121</ele>
        <time>2014-08-09T08:53:12Z</time>
      </trkpt>
      <trkpt lat="44.31197" lon="2.65359">
        <ele>676.9055176</ele>
        <time>2014-08-09T08:53:16Z</time>
      </trkpt>
      <trkpt lat="44.31184" lon="2.6537">
        <ele>674.0214844</ele>
        <time>2014-08-09T08:53:21Z</time>
      </trkpt>
      <trkpt lat="44.31169" lon="2.65373">
        <ele>673.5410156</ele>
        <time>2014-08-09T08:53:26Z</time>
      </trkpt>
      <trkpt lat="44.31157" lon="2.65372">
        <ele>670.6569824</ele>
        <time>2014-08-09T08:53:30Z</time>
      </trkpt>
      <trkpt lat="44.31145" lon="2.65376">
        <ele>670.6569824</ele>
        <time>2014-08-09T08:53:34Z</time>
      </trkpt>
      <trkpt lat="44.31137" lon="2.65376">
        <ele>668.2536621</ele>
        <time>2014-08-09T08:53:39Z</time>
      </trkpt>
      <trkpt lat="44.31131" lon="2.65374">
        <ele>666.3308105</ele>
        <time>2014-08-09T08:53:43Z</time>
      </trkpt>
      <trkpt lat="44.31125" lon="2.6537">
        <ele>665.3696289</ele>
        <time>2014-08-09T08:53:46Z</time>
      </trkpt>
      <trkpt lat="44.31108" lon="2.65363">
        <ele>661.5244141</ele>
        <time>2014-08-09T08:53:52Z</time>
      </trkpt>
      <trkpt lat="44.31104" lon="2.65363">
        <ele>660.5629883</ele>
        <time>2014-08-09T08:53:54Z</time>
      </trkpt>
      <trkpt lat="44.31101" lon="2.65364">
        <ele>661.5244141</ele>
        <time>2014-08-09T08:53:56Z</time>
      </trkpt>
      <trkpt lat="44.31087" lon="2.65367">
        <ele>661.0437012</ele>
        <time>2014-08-09T08:54:02Z</time>
      </trkpt>
      <trkpt lat="44.31067" lon="2.65368">
        <ele>658.6403809</ele>
        <time>2014-08-09T08:54:08Z</time>
      </trkpt>
      <trkpt lat="44.31061" lon="2.65373">
        <ele>659.1210938</ele>
        <time>2014-08-09T08:54:11Z</time>
      </trkpt>
      <trkpt lat="44.31047" lon="2.65381">
        <ele>660.0822754</ele>
        <time>2014-08-09T08:54:17Z</time>
      </trkpt>
      <trkpt lat="44.31035" lon="2.65388">
        <ele>659.1210938</ele>
        <time>2014-08-09T08:54:22Z</time>
      </trkpt>
      <trkpt lat="44.3103" lon="2.6539">
        <ele>659.1210938</ele>
        <time>2014-08-09T08:54:24Z</time>
      </trkpt>
      <trkpt lat="44.31024" lon="2.65393">
        <ele>658.6403809</ele>
        <time>2014-08-09T08:54:27Z</time>
      </trkpt>
      <trkpt lat="44.31013" lon="2.65398">
        <ele>656.7177734</ele>
        <time>2014-08-09T08:54:32Z</time>
      </trkpt>
      <trkpt lat="44.31009" lon="2.65402">
        <ele>656.2370605</ele>
        <time>2014-08-09T08:54:34Z</time>
      </trkpt>
      <trkpt lat="44.31001" lon="2.65407">
        <ele>652.3918457</ele>
        <time>2014-08-09T08:54:37Z</time>
      </trkpt>
      <trkpt lat="44.30992" lon="2.65414">
        <ele>650.4692383</ele>
        <time>2014-08-09T08:54:41Z</time>
      </trkpt>
      <trkpt lat="44.30979" lon="2.6542">
        <ele>647.5852051</ele>
        <time>2014-08-09T08:54:46Z</time>
      </trkpt>
      <trkpt lat="44.3097" lon="2.65423">
        <ele>645.1818848</ele>
        <time>2014-08-09T08:54:50Z</time>
      </trkpt>
      <trkpt lat="44.30968" lon="2.65425">
        <ele>644.7011719</ele>
        <time>2014-08-09T08:54:51Z</time>
      </trkpt>
      <trkpt lat="44.30957" lon="2.65435">
        <ele>643.2592773</ele>
        <time>2014-08-09T08:54:56Z</time>
      </trkpt>
      <trkpt lat="44.30946" lon="2.65442">
        <ele>638.9335938</ele>
        <time>2014-08-09T08:55:01Z</time>
      </trkpt>
      <trkpt lat="44.3093" lon="2.65449">
        <ele>634.6074219</ele>
        <time>2014-08-09T08:55:08Z</time>
      </trkpt>
      <trkpt lat="44.30917" lon="2.65466">
        <ele>628.8395996</ele>
        <time>2014-08-09T08:55:14Z</time>
      </trkpt>
      <trkpt lat="44.3091" lon="2.65482">
        <ele>626.9169922</ele>
        <time>2014-08-09T08:55:19Z</time>
      </trkpt>
      <trkpt lat="44.30902" lon="2.65494">
        <ele>624.9943848</ele>
        <time>2014-08-09T08:55:24Z</time>
      </trkpt>
      <trkpt lat="44.30888" lon="2.65505">
        <ele>627.3977051</ele>
        <time>2014-08-09T08:55:30Z</time>
      </trkpt>
      <trkpt lat="44.3088" lon="2.65511">
        <ele>629.8007813</ele>
        <time>2014-08-09T08:55:33Z</time>
      </trkpt>
      <trkpt lat="44.30876" lon="2.6552">
        <ele>631.2429199</ele>
        <time>2014-08-09T08:55:37Z</time>
      </trkpt>
      <trkpt lat="44.30885" lon="2.65534">
        <ele>634.126709</ele>
        <time>2014-08-09T08:55:43Z</time>
      </trkpt>
      <trkpt lat="44.30896" lon="2.65537">
        <ele>636.5302734</ele>
        <time>2014-08-09T08:55:48Z</time>
      </trkpt>
      <trkpt lat="44.30906" lon="2.65538">
        <ele>641.3366699</ele>
        <time>2014-08-09T08:55:53Z</time>
      </trkpt>
      <trkpt lat="44.30918" lon="2.65539">
        <ele>642.2980957</ele>
        <time>2014-08-09T08:55:58Z</time>
      </trkpt>
      <trkpt lat="44.30929" lon="2.6554">
        <ele>643.7399902</ele>
        <time>2014-08-09T08:56:03Z</time>
      </trkpt>
      <trkpt lat="44.30939" lon="2.6554">
        <ele>644.2207031</ele>
        <time>2014-08-09T08:56:08Z</time>
      </trkpt>
      <trkpt lat="44.30952" lon="2.65542">
        <ele>646.6240234</ele>
        <time>2014-08-09T08:56:14Z</time>
      </trkpt>
      <trkpt lat="44.30963" lon="2.65543">
        <ele>649.0270996</ele>
        <time>2014-08-09T08:56:20Z</time>
      </trkpt>
      <trkpt lat="44.30973" lon="2.65545">
        <ele>650.4692383</ele>
        <time>2014-08-09T08:56:25Z</time>
      </trkpt>
      <trkpt lat="44.30987" lon="2.6555">
        <ele>651.9111328</ele>
        <time>2014-08-09T08:56:31Z</time>
      </trkpt>
      <trkpt lat="44.30994" lon="2.65552">
        <ele>653.3532715</ele>
        <time>2014-08-09T08:56:35Z</time>
      </trkpt>
      <trkpt lat="44.31005" lon="2.65558">
        <ele>654.3146973</ele>
        <time>2014-08-09T08:56:40Z</time>
      </trkpt>
      <trkpt lat="44.31015" lon="2.65563">
        <ele>653.3532715</ele>
        <time>2014-08-09T08:56:45Z</time>
      </trkpt>
      <trkpt lat="44.31024" lon="2.65567">
        <ele>654.3146973</ele>
        <time>2014-08-09T08:56:49Z</time>
      </trkpt>
      <trkpt lat="44.31033" lon="2.65576">
        <ele>655.7565918</ele>
        <time>2014-08-09T08:56:54Z</time>
      </trkpt>
      <trkpt lat="44.31045" lon="2.65586">
        <ele>657.1984863</ele>
        <time>2014-08-09T08:57:00Z</time>
      </trkpt>
      <trkpt lat="44.31056" lon="2.65593">
        <ele>657.6791992</ele>
        <time>2014-08-09T08:57:05Z</time>
      </trkpt>
      <trkpt lat="44.31064" lon="2.65599">
        <ele>657.1984863</ele>
        <time>2014-08-09T08:57:09Z</time>
      </trkpt>
      <trkpt lat="44.31072" lon="2.65603">
        <ele>656.7177734</ele>
        <time>2014-08-09T08:57:13Z</time>
      </trkpt>
      <trkpt lat="44.31082" lon="2.65613">
        <ele>659.6018066</ele>
        <time>2014-08-09T08:57:18Z</time>
      </trkpt>
      <trkpt lat="44.3109" lon="2.65622">
        <ele>660.0822754</ele>
        <time>2014-08-09T08:57:23Z</time>
      </trkpt>
      <trkpt lat="44.311" lon="2.65631">
        <ele>662.4855957</ele>
        <time>2014-08-09T08:57:28Z</time>
      </trkpt>
      <trkpt lat="44.31108" lon="2.65639">
        <ele>663.9274902</ele>
        <time>2014-08-09T08:57:33Z</time>
      </trkpt>
      <trkpt lat="44.3112" lon="2.65648">
        <ele>667.2922363</ele>
        <time>2014-08-09T08:57:39Z</time>
      </trkpt>
      <trkpt lat="44.31128" lon="2.65657">
        <ele>669.2150879</ele>
        <time>2014-08-09T08:57:44Z</time>
      </trkpt>
      <trkpt lat="44.31138" lon="2.65668">
        <ele>670.1762695</ele>
        <time>2014-08-09T08:57:50Z</time>
      </trkpt>
      <trkpt lat="44.31143" lon="2.65681">
        <ele>670.1762695</ele>
        <time>2014-08-09T08:57:55Z</time>
      </trkpt>
      <trkpt lat="44.31147" lon="2.65691">
        <ele>670.6569824</ele>
        <time>2014-08-09T08:57:59Z</time>
      </trkpt>
      <trkpt lat="44.3115" lon="2.65703">
        <ele>671.6181641</ele>
        <time>2014-08-09T08:58:04Z</time>
      </trkpt>
      <trkpt lat="44.31154" lon="2.65718">
        <ele>670.6569824</ele>
        <time>2014-08-09T08:58:09Z</time>
      </trkpt>
      <trkpt lat="44.31156" lon="2.65725">
        <ele>671.1376953</ele>
        <time>2014-08-09T08:58:12Z</time>
      </trkpt>
      <trkpt lat="44.31159" lon="2.65739">
        <ele>671.6181641</ele>
        <time>2014-08-09T08:58:17Z</time>
      </trkpt>
      <trkpt lat="44.31163" lon="2.65748">
        <ele>671.6181641</ele>
        <time>2014-08-09T08:58:21Z</time>
      </trkpt>
      <trkpt lat="44.31171" lon="2.65764">
        <ele>674.0214844</ele>
        <time>2014-08-09T08:58:28Z</time>
      </trkpt>
      <trkpt lat="44.31178" lon="2.65778">
        <ele>676.4248047</ele>
        <time>2014-08-09T08:58:34Z</time>
      </trkpt>
      <trkpt lat="44.31186" lon="2.65793">
        <ele>678.3474121</ele>
        <time>2014-08-09T08:58:40Z</time>
      </trkpt>
      <trkpt lat="44.31191" lon="2.6581">
        <ele>680.7507324</ele>
        <time>2014-08-09T08:58:46Z</time>
      </trkpt>
      <trkpt lat="44.31191" lon="2.65824">
        <ele>682.6733398</ele>
        <time>2014-08-09T08:58:51Z</time>
      </trkpt>
      <trkpt lat="44.3119" lon="2.65846">
        <ele>686.0380859</ele>
        <time>2014-08-09T08:58:58Z</time>
      </trkpt>
      <trkpt lat="44.31189" lon="2.65863">
        <ele>687.4799805</ele>
        <time>2014-08-09T08:59:04Z</time>
      </trkpt>
      <trkpt lat="44.31189" lon="2.65881">
        <ele>689.4025879</ele>
        <time>2014-08-09T08:59:10Z</time>
      </trkpt>
      <trkpt lat="44.31188" lon="2.65899">
        <ele>691.3251953</ele>
        <time>2014-08-09T08:59:16Z</time>
      </trkpt>
      <trkpt lat="44.31188" lon="2.65917">
        <ele>692.767334</ele>
        <time>2014-08-09T08:59:22Z</time>
      </trkpt>
      <trkpt lat="44.31186" lon="2.65934">
        <ele>694.6896973</ele>
        <time>2014-08-09T08:59:28Z</time>
      </trkpt>
      <trkpt lat="44.31184" lon="2.65949">
        <ele>696.6125488</ele>
        <time>2014-08-09T08:59:33Z</time>
      </trkpt>
      <trkpt lat="44.31186" lon="2.65961">
        <ele>696.1318359</ele>
        <time>2014-08-09T08:59:37Z</time>
      </trkpt>
      <trkpt lat="44.31188" lon="2.65974">
        <ele>696.6125488</ele>
        <time>2014-08-09T08:59:42Z</time>
      </trkpt>
      <trkpt lat="44.31197" lon="2.65989">
        <ele>697.5737305</ele>
        <time>2014-08-09T08:59:48Z</time>
      </trkpt>
      <trkpt lat="44.31208" lon="2.66002">
        <ele>697.5737305</ele>
        <time>2014-08-09T08:59:54Z</time>
      </trkpt>
      <trkpt lat="44.31217" lon="2.66016">
        <ele>699.015625</ele>
        <time>2014-08-09T09:00:00Z</time>
      </trkpt>
      <trkpt lat="44.31227" lon="2.66028">
        <ele>700.4580078</ele>
        <time>2014-08-09T09:00:06Z</time>
      </trkpt>
      <trkpt lat="44.31229" lon="2.6603">
        <ele>700.4580078</ele>
        <time>2014-08-09T09:00:07Z</time>
      </trkpt>
      <trkpt lat="44.31239" lon="2.6604">
        <ele>701.4191895</ele>
        <time>2014-08-09T09:00:13Z</time>
      </trkpt>
      <trkpt lat="44.31249" lon="2.6605">
        <ele>703.3417969</ele>
        <time>2014-08-09T09:00:18Z</time>
      </trkpt>
      <trkpt lat="44.31261" lon="2.66056">
        <ele>706.2255859</ele>
        <time>2014-08-09T09:00:24Z</time>
      </trkpt>
      <trkpt lat="44.31271" lon="2.66056">
        <ele>706.2255859</ele>
        <time>2014-08-09T09:00:29Z</time>
      </trkpt>
      <trkpt lat="44.31281" lon="2.6606">
        <ele>707.1870117</ele>
        <time>2014-08-09T09:00:36Z</time>
      </trkpt>
      <trkpt lat="44.31284" lon="2.66063">
        <ele>707.6677246</ele>
        <time>2014-08-09T09:00:38Z</time>
      </trkpt>
      <trkpt lat="44.31288" lon="2.66073">
        <ele>708.1484375</ele>
        <time>2014-08-09T09:00:43Z</time>
      </trkpt>
      <trkpt lat="44.31292" lon="2.6608">
        <ele>708.6289063</ele>
        <time>2014-08-09T09:00:47Z</time>
      </trkpt>
      <trkpt lat="44.31293" lon="2.66082">
        <ele>709.1096191</ele>
        <time>2014-08-09T09:00:48Z</time>
      </trkpt>
      <trkpt lat="44.31296" lon="2.66089">
        <ele>710.0708008</ele>
        <time>2014-08-09T09:00:51Z</time>
      </trkpt>
      <trkpt lat="44.31297" lon="2.66093">
        <ele>711.0322266</ele>
        <time>2014-08-09T09:00:53Z</time>
      </trkpt>
      <trkpt lat="44.31306" lon="2.66109">
        <ele>709.1096191</ele>
        <time>2014-08-09T09:01:01Z</time>
      </trkpt>
      <trkpt lat="44.31311" lon="2.66123">
        <ele>710.5515137</ele>
        <time>2014-08-09T09:01:06Z</time>
      </trkpt>
      <trkpt lat="44.31313" lon="2.66138">
        <ele>712.954834</ele>
        <time>2014-08-09T09:01:11Z</time>
      </trkpt>
      <trkpt lat="44.31315" lon="2.66147">
        <ele>714.3967285</ele>
        <time>2014-08-09T09:01:14Z</time>
      </trkpt>
      <trkpt lat="44.31321" lon="2.66166">
        <ele>717.2810059</ele>
        <time>2014-08-09T09:01:21Z</time>
      </trkpt>
      <trkpt lat="44.31322" lon="2.66169">
        <ele>717.2810059</ele>
        <time>2014-08-09T09:01:22Z</time>
      </trkpt>
      <trkpt lat="44.31323" lon="2.66174">
        <ele>718.2421875</ele>
        <time>2014-08-09T09:01:24Z</time>
      </trkpt>
      <trkpt lat="44.31325" lon="2.66191">
        <ele>721.1262207</ele>
        <time>2014-08-09T09:01:30Z</time>
      </trkpt>
      <trkpt lat="44.31327" lon="2.66201">
        <ele>721.6066895</ele>
        <time>2014-08-09T09:01:34Z</time>
      </trkpt>
      <trkpt lat="44.31328" lon="2.66206">
        <ele>721.1262207</ele>
        <time>2014-08-09T09:01:36Z</time>
      </trkpt>
      <trkpt lat="44.31332" lon="2.66225">
        <ele>723.529541</ele>
        <time>2014-08-09T09:01:44Z</time>
      </trkpt>
      <trkpt lat="44.31338" lon="2.66236">
        <ele>726.894043</ele>
        <time>2014-08-09T09:01:49Z</time>
      </trkpt>
      <trkpt lat="44.31345" lon="2.66244">
        <ele>729.777832</ele>
        <time>2014-08-09T09:01:54Z</time>
      </trkpt>
      <trkpt lat="44.31354" lon="2.66256">
        <ele>728.8166504</ele>
        <time>2014-08-09T09:02:00Z</time>
      </trkpt>
      <trkpt lat="44.31363" lon="2.66268">
        <ele>731.2199707</ele>
        <time>2014-08-09T09:02:06Z</time>
      </trkpt>
      <trkpt lat="44.31365" lon="2.6627">
        <ele>731.7004395</ele>
        <time>2014-08-09T09:02:07Z</time>
      </trkpt>
      <trkpt lat="44.31372" lon="2.66277">
        <ele>730.7392578</ele>
        <time>2014-08-09T09:02:11Z</time>
      </trkpt>
      <trkpt lat="44.31378" lon="2.66286">
        <ele>729.777832</ele>
        <time>2014-08-09T09:02:15Z</time>
      </trkpt>
      <trkpt lat="44.31382" lon="2.66294">
        <ele>729.2971191</ele>
        <time>2014-08-09T09:02:19Z</time>
      </trkpt>
      <trkpt lat="44.31381" lon="2.66306">
        <ele>729.777832</ele>
        <time>2014-08-09T09:02:24Z</time>
      </trkpt>
      <trkpt lat="44.31381" lon="2.6632">
        <ele>728.3359375</ele>
        <time>2014-08-09T09:02:29Z</time>
      </trkpt>
      <trkpt lat="44.31381" lon="2.66324">
        <ele>728.3359375</ele>
        <time>2014-08-09T09:02:31Z</time>
      </trkpt>
      <trkpt lat="44.31383" lon="2.6633">
        <ele>729.2971191</ele>
        <time>2014-08-09T09:02:34Z</time>
      </trkpt>
      <trkpt lat="44.31386" lon="2.66338">
        <ele>730.7392578</ele>
        <time>2014-08-09T09:02:38Z</time>
      </trkpt>
      <trkpt lat="44.31389" lon="2.66346">
        <ele>731.2199707</ele>
        <time>2014-08-09T09:02:43Z</time>
      </trkpt>
      <trkpt lat="44.31397" lon="2.66354">
        <ele>731.2199707</ele>
        <time>2014-08-09T09:02:49Z</time>
      </trkpt>
      <trkpt lat="44.31406" lon="2.6636">
        <ele>735.5458984</ele>
        <time>2014-08-09T09:02:55Z</time>
      </trkpt>
      <trkpt lat="44.31415" lon="2.66365">
        <ele>735.5458984</ele>
        <time>2014-08-09T09:02:59Z</time>
      </trkpt>
      <trkpt lat="44.31427" lon="2.66369">
        <ele>736.5073242</ele>
        <time>2014-08-09T09:03:05Z</time>
      </trkpt>
      <trkpt lat="44.31438" lon="2.66369">
        <ele>736.0266113</ele>
        <time>2014-08-09T09:03:10Z</time>
      </trkpt>
      <trkpt lat="44.3145" lon="2.66371">
        <ele>737.9492188</ele>
        <time>2014-08-09T09:03:16Z</time>
      </trkpt>
      <trkpt lat="44.31461" lon="2.66379">
        <ele>741.3137207</ele>
        <time>2014-08-09T09:03:22Z</time>
      </trkpt>
      <trkpt lat="44.3147" lon="2.66387">
        <ele>744.1977539</ele>
        <time>2014-08-09T09:03:27Z</time>
      </trkpt>
      <trkpt lat="44.31476" lon="2.66394">
        <ele>748.0432129</ele>
        <time>2014-08-09T09:03:32Z</time>
      </trkpt>
      <trkpt lat="44.31478" lon="2.66395">
        <ele>748.5236816</ele>
        <time>2014-08-09T09:03:33Z</time>
      </trkpt>
      <trkpt lat="44.31482" lon="2.66399">
        <ele>749.4851074</ele>
        <time>2014-08-09T09:03:36Z</time>
      </trkpt>
      <trkpt lat="44.3149" lon="2.66409">
        <ele>752.8496094</ele>
        <time>2014-08-09T09:03:41Z</time>
      </trkpt>
      <trkpt lat="44.31491" lon="2.66411">
        <ele>753.3303223</ele>
        <time>2014-08-09T09:03:42Z</time>
      </trkpt>
      <trkpt lat="44.31495" lon="2.66417">
        <ele>752.8496094</ele>
        <time>2014-08-09T09:03:47Z</time>
      </trkpt>
      <trkpt lat="44.31503" lon="2.66423">
        <ele>754.7722168</ele>
        <time>2014-08-09T09:03:51Z</time>
      </trkpt>
      <trkpt lat="44.31513" lon="2.66433">
        <ele>754.7722168</ele>
        <time>2014-08-09T09:03:57Z</time>
      </trkpt>
      <trkpt lat="44.31518" lon="2.66437">
        <ele>756.6948242</ele>
        <time>2014-08-09T09:04:00Z</time>
      </trkpt>
      <trkpt lat="44.31527" lon="2.66447">
        <ele>759.0981445</ele>
        <time>2014-08-09T09:04:06Z</time>
      </trkpt>
      <trkpt lat="44.31532" lon="2.6646">
        <ele>759.5788574</ele>
        <time>2014-08-09T09:04:12Z</time>
      </trkpt>
      <trkpt lat="44.31531" lon="2.66469">
        <ele>760.0593262</ele>
        <time>2014-08-09T09:04:15Z</time>
      </trkpt>
      <trkpt lat="44.31526" lon="2.66487">
        <ele>761.9821777</ele>
        <time>2014-08-09T09:04:21Z</time>
      </trkpt>
      <trkpt lat="44.31521" lon="2.66499">
        <ele>761.9821777</ele>
        <time>2014-08-09T09:04:25Z</time>
      </trkpt>
      <trkpt lat="44.31513" lon="2.66513">
        <ele>763.904541</ele>
        <time>2014-08-09T09:04:30Z</time>
      </trkpt>
      <trkpt lat="44.31505" lon="2.66519">
        <ele>763.904541</ele>
        <time>2014-08-09T09:04:35Z</time>
      </trkpt>
      <trkpt lat="44.31494" lon="2.66522">
        <ele>763.4240723</ele>
        <time>2014-08-09T09:04:40Z</time>
      </trkpt>
      <trkpt lat="44.31481" lon="2.66523">
        <ele>764.385498</ele>
        <time>2014-08-09T09:04:46Z</time>
      </trkpt>
      <trkpt lat="44.31472" lon="2.66527">
        <ele>763.4240723</ele>
        <time>2014-08-09T09:04:50Z</time>
      </trkpt>
      <trkpt lat="44.31461" lon="2.66543">
        <ele>762.9433594</ele>
        <time>2014-08-09T09:04:57Z</time>
      </trkpt>
      <trkpt lat="44.31455" lon="2.6656">
        <ele>766.7888184</ele>
        <time>2014-08-09T09:05:02Z</time>
      </trkpt>
      <trkpt lat="44.31454" lon="2.6658">
        <ele>769.1921387</ele>
        <time>2014-08-09T09:05:08Z</time>
      </trkpt>
      <trkpt lat="44.31459" lon="2.666">
        <ele>769.1921387</ele>
        <time>2014-08-09T09:05:14Z</time>
      </trkpt>
      <trkpt lat="44.31468" lon="2.66612">
        <ele>769.6728516</ele>
        <time>2014-08-09T09:05:19Z</time>
      </trkpt>
      <trkpt lat="44.31479" lon="2.66622">
        <ele>771.1147461</ele>
        <time>2014-08-09T09:05:24Z</time>
      </trkpt>
      <trkpt lat="44.31492" lon="2.6663">
        <ele>772.5566406</ele>
        <time>2014-08-09T09:05:30Z</time>
      </trkpt>
      <trkpt lat="44.31505" lon="2.66639">
        <ele>773.5180664</ele>
        <time>2014-08-09T09:05:36Z</time>
      </trkpt>
      <trkpt lat="44.31518" lon="2.66648">
        <ele>773.9985352</ele>
        <time>2014-08-09T09:05:42Z</time>
      </trkpt>
      <trkpt lat="44.31529" lon="2.66657">
        <ele>775.4404297</ele>
        <time>2014-08-09T09:05:47Z</time>
      </trkpt>
      <trkpt lat="44.3154" lon="2.66665">
        <ele>775.4404297</ele>
        <time>2014-08-09T09:05:52Z</time>
      </trkpt>
      <trkpt lat="44.31552" lon="2.66674">
        <ele>776.8825684</ele>
        <time>2014-08-09T09:05:57Z</time>
      </trkpt>
      <trkpt lat="44.31564" lon="2.66685">
        <ele>776.8825684</ele>
        <time>2014-08-09T09:06:03Z</time>
      </trkpt>
      <trkpt lat="44.31575" lon="2.66692">
        <ele>776.8825684</ele>
        <time>2014-08-09T09:06:08Z</time>
      </trkpt>
      <trkpt lat="44.31585" lon="2.66682">
        <ele>774.479248</ele>
        <time>2014-08-09T09:06:13Z</time>
      </trkpt>
      <trkpt lat="44.31594" lon="2.66658">
        <ele>770.1533203</ele>
        <time>2014-08-09T09:06:20Z</time>
      </trkpt>
      <trkpt lat="44.31599" lon="2.66647">
        <ele>768.2307129</ele>
        <time>2014-08-09T09:06:24Z</time>
      </trkpt>
      <trkpt lat="44.31609" lon="2.66634">
        <ele>766.3081055</ele>
        <time>2014-08-09T09:06:29Z</time>
      </trkpt>
      <trkpt lat="44.31621" lon="2.66625">
        <ele>764.8662109</ele>
        <time>2014-08-09T09:06:34Z</time>
      </trkpt>
      <trkpt lat="44.31634" lon="2.66616">
        <ele>764.385498</ele>
        <time>2014-08-09T09:06:40Z</time>
      </trkpt>
      <trkpt lat="44.31645" lon="2.66607">
        <ele>764.385498</ele>
        <time>2014-08-09T09:06:44Z</time>
      </trkpt>
      <trkpt lat="44.31655" lon="2.66593">
        <ele>762.9433594</ele>
        <time>2014-08-09T09:06:49Z</time>
      </trkpt>
      <trkpt lat="44.31664" lon="2.66582">
        <ele>761.5014648</ele>
        <time>2014-08-09T09:06:53Z</time>
      </trkpt>
      <trkpt lat="44.31676" lon="2.66572">
        <ele>760.0593262</ele>
        <time>2014-08-09T09:06:58Z</time>
      </trkpt>
      <trkpt lat="44.31682" lon="2.66565">
        <ele>760.0593262</ele>
        <time>2014-08-09T09:07:01Z</time>
      </trkpt>
      <trkpt lat="44.31691" lon="2.6655">
        <ele>757.65625</ele>
        <time>2014-08-09T09:07:06Z</time>
      </trkpt>
      <trkpt lat="44.31698" lon="2.66536">
        <ele>756.2141113</ele>
        <time>2014-08-09T09:07:11Z</time>
      </trkpt>
      <trkpt lat="44.31707" lon="2.66524">
        <ele>756.2141113</ele>
        <time>2014-08-09T09:07:16Z</time>
      </trkpt>
      <trkpt lat="44.31709" lon="2.66521">
        <ele>757.1755371</ele>
        <time>2014-08-09T09:07:17Z</time>
      </trkpt>
      <trkpt lat="44.31719" lon="2.66506">
        <ele>759.0981445</ele>
        <time>2014-08-09T09:07:22Z</time>
      </trkpt>
      <trkpt lat="44.31725" lon="2.66499">
        <ele>759.5788574</ele>
        <time>2014-08-09T09:07:25Z</time>
      </trkpt>
      <trkpt lat="44.3174" lon="2.66484">
        <ele>759.0981445</ele>
        <time>2014-08-09T09:07:31Z</time>
      </trkpt>
      <trkpt lat="44.31751" lon="2.66474">
        <ele>759.5788574</ele>
        <time>2014-08-09T09:07:35Z</time>
      </trkpt>
      <trkpt lat="44.31753" lon="2.66471">
        <ele>759.0981445</ele>
        <time>2014-08-09T09:07:36Z</time>
      </trkpt>
      <trkpt lat="44.31768" lon="2.6646">
        <ele>759.0981445</ele>
        <time>2014-08-09T09:07:41Z</time>
      </trkpt>
      <trkpt lat="44.31778" lon="2.66453">
        <ele>760.5400391</ele>
        <time>2014-08-09T09:07:45Z</time>
      </trkpt>
      <trkpt lat="44.31788" lon="2.66448">
        <ele>761.5014648</ele>
        <time>2014-08-09T09:07:49Z</time>
      </trkpt>
      <trkpt lat="44.31802" lon="2.66441">
        <ele>761.9821777</ele>
        <time>2014-08-09T09:07:54Z</time>
      </trkpt>
      <trkpt lat="44.31806" lon="2.66438">
        <ele>761.9821777</ele>
        <time>2014-08-09T09:07:56Z</time>
      </trkpt>
      <trkpt lat="44.31813" lon="2.66418">
        <ele>761.020752</ele>
        <time>2014-08-09T09:08:02Z</time>
      </trkpt>
      <trkpt lat="44.31817" lon="2.66396">
        <ele>757.65625</ele>
        <time>2014-08-09T09:08:07Z</time>
      </trkpt>
      <trkpt lat="44.3182" lon="2.66375">
        <ele>756.2141113</ele>
        <time>2014-08-09T09:08:12Z</time>
      </trkpt>
      <trkpt lat="44.31819" lon="2.66356">
        <ele>754.7722168</ele>
        <time>2014-08-09T09:08:17Z</time>
      </trkpt>
      <trkpt lat="44.31818" lon="2.66343">
        <ele>754.7722168</ele>
        <time>2014-08-09T09:08:21Z</time>
      </trkpt>
      <trkpt lat="44.31817" lon="2.66323">
        <ele>754.7722168</ele>
        <time>2014-08-09T09:08:25Z</time>
      </trkpt>
      <trkpt lat="44.31817" lon="2.66302">
        <ele>753.8110352</ele>
        <time>2014-08-09T09:08:30Z</time>
      </trkpt>
      <trkpt lat="44.31819" lon="2.66285">
        <ele>754.291748</ele>
        <time>2014-08-09T09:08:34Z</time>
      </trkpt>
      <trkpt lat="44.31823" lon="2.66263">
        <ele>753.8110352</ele>
        <time>2014-08-09T09:08:39Z</time>
      </trkpt>
      <trkpt lat="44.31826" lon="2.66247">
        <ele>752.8496094</ele>
        <time>2014-08-09T09:08:43Z</time>
      </trkpt>
      <trkpt lat="44.31829" lon="2.66228">
        <ele>751.4077148</ele>
        <time>2014-08-09T09:08:48Z</time>
      </trkpt>
      <trkpt lat="44.31832" lon="2.66211">
        <ele>750.4465332</ele>
        <time>2014-08-09T09:08:52Z</time>
      </trkpt>
      <trkpt lat="44.31834" lon="2.66202">
        <ele>750.4465332</ele>
        <time>2014-08-09T09:08:54Z</time>
      </trkpt>
      <trkpt lat="44.31838" lon="2.66187">
        <ele>751.4077148</ele>
        <time>2014-08-09T09:08:58Z</time>
      </trkpt>
      <trkpt lat="44.31838" lon="2.66172">
        <ele>751.8884277</ele>
        <time>2014-08-09T09:09:02Z</time>
      </trkpt>
      <trkpt lat="44.31839" lon="2.66156">
        <ele>749.9658203</ele>
        <time>2014-08-09T09:09:06Z</time>
      </trkpt>
      <trkpt lat="44.31843" lon="2.66136">
        <ele>747.5622559</ele>
        <time>2014-08-09T09:09:11Z</time>
      </trkpt>
      <trkpt lat="44.31848" lon="2.66114">
        <ele>745.6396484</ele>
        <time>2014-08-09T09:09:16Z</time>
      </trkpt>
      <trkpt lat="44.31849" lon="2.66097">
        <ele>743.717041</ele>
        <time>2014-08-09T09:09:20Z</time>
      </trkpt>
      <trkpt lat="44.31854" lon="2.66075">
        <ele>741.7944336</ele>
        <time>2014-08-09T09:09:25Z</time>
      </trkpt>
      <trkpt lat="44.31858" lon="2.66054">
        <ele>741.3137207</ele>
        <time>2014-08-09T09:09:30Z</time>
      </trkpt>
      <trkpt lat="44.31857" lon="2.66032">
        <ele>741.7944336</ele>
        <time>2014-08-09T09:09:35Z</time>
      </trkpt>
      <trkpt lat="44.31861" lon="2.66016">
        <ele>742.2751465</ele>
        <time>2014-08-09T09:09:39Z</time>
      </trkpt>
      <trkpt lat="44.31862" lon="2.66007">
        <ele>743.717041</ele>
        <time>2014-08-09T09:09:41Z</time>
      </trkpt>
      <trkpt lat="44.31869" lon="2.65987">
        <ele>743.2363281</ele>
        <time>2014-08-09T09:09:46Z</time>
      </trkpt>
      <trkpt lat="44.31876" lon="2.65973">
        <ele>742.2751465</ele>
        <time>2014-08-09T09:09:50Z</time>
      </trkpt>
      <trkpt lat="44.31885" lon="2.65956">
        <ele>740.8330078</ele>
        <time>2014-08-09T09:09:55Z</time>
      </trkpt>
      <trkpt lat="44.31892" lon="2.6594">
        <ele>739.8718262</ele>
        <time>2014-08-09T09:10:00Z</time>
      </trkpt>
      <trkpt lat="44.31901" lon="2.65924">
        <ele>739.3911133</ele>
        <time>2014-08-09T09:10:05Z</time>
      </trkpt>
      <trkpt lat="44.31908" lon="2.65912">
        <ele>737.4685059</ele>
        <time>2014-08-09T09:10:09Z</time>
      </trkpt>
      <trkpt lat="44.31919" lon="2.65895">
        <ele>736.987793</ele>
        <time>2014-08-09T09:10:14Z</time>
      </trkpt>
      <trkpt lat="44.31924" lon="2.6588">
        <ele>736.0266113</ele>
        <time>2014-08-09T09:10:18Z</time>
      </trkpt>
      <trkpt lat="44.31933" lon="2.65868">
        <ele>735.5458984</ele>
        <time>2014-08-09T09:10:22Z</time>
      </trkpt>
      <trkpt lat="44.3194" lon="2.65855">
        <ele>734.5847168</ele>
        <time>2014-08-09T09:10:26Z</time>
      </trkpt>
      <trkpt lat="44.31942" lon="2.65852">
        <ele>734.1040039</ele>
        <time>2014-08-09T09:10:27Z</time>
      </trkpt>
      <trkpt lat="44.3195" lon="2.65835">
        <ele>733.623291</ele>
        <time>2014-08-09T09:10:32Z</time>
      </trkpt>
      <trkpt lat="44.31955" lon="2.65821">
        <ele>732.6621094</ele>
        <time>2014-08-09T09:10:36Z</time>
      </trkpt>
      <trkpt lat="44.31966" lon="2.65807">
        <ele>733.1425781</ele>
        <time>2014-08-09T09:10:41Z</time>
      </trkpt>
      <trkpt lat="44.31967" lon="2.65803">
        <ele>733.1425781</ele>
        <time>2014-08-09T09:10:42Z</time>
      </trkpt>
      <trkpt lat="44.31976" lon="2.65785">
        <ele>732.6621094</ele>
        <time>2014-08-09T09:10:47Z</time>
      </trkpt>
      <trkpt lat="44.31987" lon="2.65764">
        <ele>731.7004395</ele>
        <time>2014-08-09T09:10:53Z</time>
      </trkpt>
      <trkpt lat="44.31992" lon="2.65749">
        <ele>730.7392578</ele>
        <time>2014-08-09T09:10:57Z</time>
      </trkpt>
      <trkpt lat="44.31998" lon="2.65734">
        <ele>730.2585449</ele>
        <time>2014-08-09T09:11:01Z</time>
      </trkpt>
      <trkpt lat="44.32004" lon="2.65716">
        <ele>729.777832</ele>
        <time>2014-08-09T09:11:05Z</time>
      </trkpt>
      <trkpt lat="44.32008" lon="2.65697">
        <ele>728.8166504</ele>
        <time>2014-08-09T09:11:10Z</time>
      </trkpt>
      <trkpt lat="44.32008" lon="2.65685">
        <ele>727.8552246</ele>
        <time>2014-08-09T09:11:13Z</time>
      </trkpt>
      <trkpt lat="44.32015" lon="2.65666">
        <ele>727.3747559</ele>
        <time>2014-08-09T09:11:18Z</time>
      </trkpt>
      <trkpt lat="44.32019" lon="2.65644">
        <ele>725.4519043</ele>
        <time>2014-08-09T09:11:24Z</time>
      </trkpt>
      <trkpt lat="44.32022" lon="2.65628">
        <ele>724.9714355</ele>
        <time>2014-08-09T09:11:28Z</time>
      </trkpt>
      <trkpt lat="44.32023" lon="2.65612">
        <ele>724.4907227</ele>
        <time>2014-08-09T09:11:32Z</time>
      </trkpt>
      <trkpt lat="44.32026" lon="2.65591">
        <ele>724.0100098</ele>
        <time>2014-08-09T09:11:37Z</time>
      </trkpt>
      <trkpt lat="44.32029" lon="2.65576">
        <ele>723.529541</ele>
        <time>2014-08-09T09:11:41Z</time>
      </trkpt>
      <trkpt lat="44.32031" lon="2.6556">
        <ele>723.529541</ele>
        <time>2014-08-09T09:11:45Z</time>
      </trkpt>
      <trkpt lat="44.32039" lon="2.65536">
        <ele>724.0100098</ele>
        <time>2014-08-09T09:11:51Z</time>
      </trkpt>
      <trkpt lat="44.32042" lon="2.65512">
        <ele>724.0100098</ele>
        <time>2014-08-09T09:11:57Z</time>
      </trkpt>
      <trkpt lat="44.32044" lon="2.65496">
        <ele>723.529541</ele>
        <time>2014-08-09T09:12:01Z</time>
      </trkpt>
      <trkpt lat="44.32048" lon="2.65472">
        <ele>721.6066895</ele>
        <time>2014-08-09T09:12:07Z</time>
      </trkpt>
      <trkpt lat="44.32049" lon="2.65469">
        <ele>721.1262207</ele>
        <time>2014-08-09T09:12:08Z</time>
      </trkpt>
      <trkpt lat="44.3205" lon="2.65458">
        <ele>719.6843262</ele>
        <time>2014-08-09T09:12:12Z</time>
      </trkpt>
      <trkpt lat="44.3205" lon="2.65449">
        <ele>718.2421875</ele>
        <time>2014-08-09T09:12:17Z</time>
      </trkpt>
      <trkpt lat="44.32051" lon="2.65425">
        <ele>716.3195801</ele>
        <time>2014-08-09T09:12:23Z</time>
      </trkpt>
      <trkpt lat="44.32052" lon="2.65407">
        <ele>713.9160156</ele>
        <time>2014-08-09T09:12:28Z</time>
      </trkpt>
      <trkpt lat="44.32051" lon="2.6539">
        <ele>710.5515137</ele>
        <time>2014-08-09T09:12:33Z</time>
      </trkpt>
      <trkpt lat="44.32051" lon="2.6537">
        <ele>708.6289063</ele>
        <time>2014-08-09T09:12:38Z</time>
      </trkpt>
      <trkpt lat="44.3205" lon="2.65352">
        <ele>707.1870117</ele>
        <time>2014-08-09T09:12:42Z</time>
      </trkpt>
      <trkpt lat="44.32048" lon="2.65338">
        <ele>707.6677246</ele>
        <time>2014-08-09T09:12:45Z</time>
      </trkpt>
      <trkpt lat="44.3205" lon="2.65315">
        <ele>706.7062988</ele>
        <time>2014-08-09T09:12:50Z</time>
      </trkpt>
      <trkpt lat="44.32049" lon="2.65295">
        <ele>706.2255859</ele>
        <time>2014-08-09T09:12:55Z</time>
      </trkpt>
      <trkpt lat="44.3205" lon="2.6528">
        <ele>705.7451172</ele>
        <time>2014-08-09T09:12:59Z</time>
      </trkpt>
      <trkpt lat="44.32052" lon="2.65259">
        <ele>704.3032227</ele>
        <time>2014-08-09T09:13:04Z</time>
      </trkpt>
      <trkpt lat="44.32056" lon="2.65243">
        <ele>703.3417969</ele>
        <time>2014-08-09T09:13:08Z</time>
      </trkpt>
      <trkpt lat="44.32056" lon="2.65239">
        <ele>703.3417969</ele>
        <time>2014-08-09T09:13:09Z</time>
      </trkpt>
      <trkpt lat="44.32058" lon="2.6522">
        <ele>701.8999023</ele>
        <time>2014-08-09T09:13:13Z</time>
      </trkpt>
      <trkpt lat="44.32055" lon="2.65205">
        <ele>699.015625</ele>
        <time>2014-08-09T09:13:17Z</time>
      </trkpt>
      <trkpt lat="44.32052" lon="2.65194">
        <ele>696.1318359</ele>
        <time>2014-08-09T09:13:21Z</time>
      </trkpt>
      <trkpt lat="44.32051" lon="2.65195">
        <ele>693.7285156</ele>
        <time>2014-08-09T09:13:25Z</time>
      </trkpt>
      <trkpt lat="44.32051" lon="2.65194">
        <ele>693.7285156</ele>
        <time>2014-08-09T09:13:26Z</time>
      </trkpt>
      <trkpt lat="44.32054" lon="2.65176">
        <ele>691.3251953</ele>
        <time>2014-08-09T09:13:31Z</time>
      </trkpt>
      <trkpt lat="44.32055" lon="2.65163">
        <ele>689.8833008</ele>
        <time>2014-08-09T09:13:34Z</time>
      </trkpt>
      <trkpt lat="44.32053" lon="2.65144">
        <ele>686.9992676</ele>
        <time>2014-08-09T09:13:39Z</time>
      </trkpt>
      <trkpt lat="44.32051" lon="2.65128">
        <ele>685.557373</ele>
        <time>2014-08-09T09:13:43Z</time>
      </trkpt>
      <trkpt lat="44.32048" lon="2.65114">
        <ele>686.5187988</ele>
        <time>2014-08-09T09:13:47Z</time>
      </trkpt>
      <trkpt lat="44.32042" lon="2.65095">
        <ele>686.9992676</ele>
        <time>2014-08-09T09:13:52Z</time>
      </trkpt>
      <trkpt lat="44.32035" lon="2.65087">
        <ele>687.4799805</ele>
        <time>2014-08-09T09:13:56Z</time>
      </trkpt>
      <trkpt lat="44.32033" lon="2.65085">
        <ele>687.4799805</ele>
        <time>2014-08-09T09:13:57Z</time>
      </trkpt>
      <trkpt lat="44.32021" lon="2.65079">
        <ele>688.4414063</ele>
        <time>2014-08-09T09:14:02Z</time>
      </trkpt>
      <trkpt lat="44.32016" lon="2.65077">
        <ele>687.9606934</ele>
        <time>2014-08-09T09:14:04Z</time>
      </trkpt>
      <trkpt lat="44.32" lon="2.65062">
        <ele>688.9221191</ele>
        <time>2014-08-09T09:14:11Z</time>
      </trkpt>
      <trkpt lat="44.31995" lon="2.65048">
        <ele>689.4025879</ele>
        <time>2014-08-09T09:14:15Z</time>
      </trkpt>
      <trkpt lat="44.31994" lon="2.65031">
        <ele>688.9221191</ele>
        <time>2014-08-09T09:14:19Z</time>
      </trkpt>
      <trkpt lat="44.31997" lon="2.6501">
        <ele>688.4414063</ele>
        <time>2014-08-09T09:14:24Z</time>
      </trkpt>
      <trkpt lat="44.32" lon="2.65002">
        <ele>689.4025879</ele>
        <time>2014-08-09T09:14:26Z</time>
      </trkpt>
      <trkpt lat="44.32007" lon="2.6499">
        <ele>689.8833008</ele>
        <time>2014-08-09T09:14:30Z</time>
      </trkpt>
      <trkpt lat="44.32021" lon="2.64983">
        <ele>689.8833008</ele>
        <time>2014-08-09T09:14:35Z</time>
      </trkpt>
      <trkpt lat="44.32031" lon="2.64975">
        <ele>689.8833008</ele>
        <time>2014-08-09T09:14:39Z</time>
      </trkpt>
      <trkpt lat="44.32038" lon="2.64969">
        <ele>690.3640137</ele>
        <time>2014-08-09T09:14:42Z</time>
      </trkpt>
      <trkpt lat="44.32049" lon="2.64959">
        <ele>690.3640137</ele>
        <time>2014-08-09T09:14:47Z</time>
      </trkpt>
      <trkpt lat="44.32052" lon="2.64954">
        <ele>690.3640137</ele>
        <time>2014-08-09T09:14:49Z</time>
      </trkpt>
      <trkpt lat="44.32065" lon="2.64942">
        <ele>689.4025879</ele>
        <time>2014-08-09T09:14:54Z</time>
      </trkpt>
      <trkpt lat="44.32073" lon="2.64933">
        <ele>688.9221191</ele>
        <time>2014-08-09T09:14:58Z</time>
      </trkpt>
      <trkpt lat="44.32076" lon="2.6493">
        <ele>688.9221191</ele>
        <time>2014-08-09T09:14:59Z</time>
      </trkpt>
      <trkpt lat="44.3209" lon="2.64913">
        <ele>687.4799805</ele>
        <time>2014-08-09T09:15:05Z</time>
      </trkpt>
      <trkpt lat="44.32093" lon="2.64911">
        <ele>687.4799805</ele>
        <time>2014-08-09T09:15:06Z</time>
      </trkpt>
      <trkpt lat="44.32101" lon="2.64896">
        <ele>686.0380859</ele>
        <time>2014-08-09T09:15:11Z</time>
      </trkpt>
      <trkpt lat="44.32103" lon="2.64885">
        <ele>685.557373</ele>
        <time>2014-08-09T09:15:14Z</time>
      </trkpt>
      <trkpt lat="44.32105" lon="2.64866">
        <ele>685.557373</ele>
        <time>2014-08-09T09:15:19Z</time>
      </trkpt>
      <trkpt lat="44.32109" lon="2.64845">
        <ele>687.4799805</ele>
        <time>2014-08-09T09:15:24Z</time>
      </trkpt>
      <trkpt lat="44.32113" lon="2.64818">
        <ele>687.4799805</ele>
        <time>2014-08-09T09:15:31Z</time>
      </trkpt>
      <trkpt lat="44.32115" lon="2.64802">
        <ele>686.9992676</ele>
        <time>2014-08-09T09:15:35Z</time>
      </trkpt>
      <trkpt lat="44.32116" lon="2.64799">
        <ele>686.9992676</ele>
        <time>2014-08-09T09:15:36Z</time>
      </trkpt>
      <trkpt lat="44.32116" lon="2.6478">
        <ele>685.557373</ele>
        <time>2014-08-09T09:15:41Z</time>
      </trkpt>
      <trkpt lat="44.32119" lon="2.6476">
        <ele>685.0769043</ele>
        <time>2014-08-09T09:15:46Z</time>
      </trkpt>
      <trkpt lat="44.32122" lon="2.64747">
        <ele>684.5961914</ele>
        <time>2014-08-09T09:15:49Z</time>
      </trkpt>
      <trkpt lat="44.32126" lon="2.64727">
        <ele>685.0769043</ele>
        <time>2014-08-09T09:15:54Z</time>
      </trkpt>
      <trkpt lat="44.32129" lon="2.64707">
        <ele>685.557373</ele>
        <time>2014-08-09T09:15:59Z</time>
      </trkpt>
      <trkpt lat="44.32133" lon="2.64687">
        <ele>685.557373</ele>
        <time>2014-08-09T09:16:04Z</time>
      </trkpt>
      <trkpt lat="44.32136" lon="2.64669">
        <ele>685.557373</ele>
        <time>2014-08-09T09:16:09Z</time>
      </trkpt>
      <trkpt lat="44.32138" lon="2.64658">
        <ele>685.557373</ele>
        <time>2014-08-09T09:16:12Z</time>
      </trkpt>
      <trkpt lat="44.32151" lon="2.64645">
        <ele>686.0380859</ele>
        <time>2014-08-09T09:16:18Z</time>
      </trkpt>
      <trkpt lat="44.32163" lon="2.64645">
        <ele>686.5187988</ele>
        <time>2014-08-09T09:16:22Z</time>
      </trkpt>
      <trkpt lat="44.32177" lon="2.64651">
        <ele>686.0380859</ele>
        <time>2014-08-09T09:16:27Z</time>
      </trkpt>
      <trkpt lat="44.32196" lon="2.64655">
        <ele>684.1154785</ele>
        <time>2014-08-09T09:16:34Z</time>
      </trkpt>
      <trkpt lat="44.32211" lon="2.6466">
        <ele>682.6733398</ele>
        <time>2014-08-09T09:16:39Z</time>
      </trkpt>
      <trkpt lat="44.32227" lon="2.64669">
        <ele>681.2314453</ele>
        <time>2014-08-09T09:16:45Z</time>
      </trkpt>
      <trkpt lat="44.3224" lon="2.6468">
        <ele>679.3085938</ele>
        <time>2014-08-09T09:16:50Z</time>
      </trkpt>
      <trkpt lat="44.32251" lon="2.64692">
        <ele>678.828125</ele>
        <time>2014-08-09T09:16:55Z</time>
      </trkpt>
      <trkpt lat="44.32261" lon="2.64707">
        <ele>678.3474121</ele>
        <time>2014-08-09T09:17:00Z</time>
      </trkpt>
      <trkpt lat="44.32267" lon="2.64724">
        <ele>676.9055176</ele>
        <time>2014-08-09T09:17:05Z</time>
      </trkpt>
      <trkpt lat="44.32271" lon="2.64742">
        <ele>676.4248047</ele>
        <time>2014-08-09T09:17:10Z</time>
      </trkpt>
      <trkpt lat="44.32274" lon="2.6476">
        <ele>674.5021973</ele>
        <time>2014-08-09T09:17:15Z</time>
      </trkpt>
      <trkpt lat="44.32277" lon="2.64771">
        <ele>674.5021973</ele>
        <time>2014-08-09T09:17:18Z</time>
      </trkpt>
      <trkpt lat="44.32283" lon="2.64788">
        <ele>674.9829102</ele>
        <time>2014-08-09T09:17:23Z</time>
      </trkpt>
      <trkpt lat="44.32293" lon="2.6481">
        <ele>674.5021973</ele>
        <time>2014-08-09T09:17:30Z</time>
      </trkpt>
      <trkpt lat="44.32298" lon="2.64823">
        <ele>673.5410156</ele>
        <time>2014-08-09T09:17:34Z</time>
      </trkpt>
      <trkpt lat="44.32307" lon="2.64819">
        <ele>672.5795898</ele>
        <time>2014-08-09T09:17:38Z</time>
      </trkpt>
      <trkpt lat="44.3231" lon="2.64817">
        <ele>672.098877</ele>
        <time>2014-08-09T09:17:39Z</time>
      </trkpt>
      <trkpt lat="44.32317" lon="2.64801">
        <ele>670.6569824</ele>
        <time>2014-08-09T09:17:44Z</time>
      </trkpt>
      <trkpt lat="44.32324" lon="2.64784">
        <ele>669.2150879</ele>
        <time>2014-08-09T09:17:49Z</time>
      </trkpt>
      <trkpt lat="44.32333" lon="2.64767">
        <ele>668.2536621</ele>
        <time>2014-08-09T09:17:55Z</time>
      </trkpt>
      <trkpt lat="44.32343" lon="2.64753">
        <ele>666.8115234</ele>
        <time>2014-08-09T09:18:00Z</time>
      </trkpt>
      <trkpt lat="44.32353" lon="2.64746">
        <ele>664.888916</ele>
        <time>2014-08-09T09:18:04Z</time>
      </trkpt>
      <trkpt lat="44.32367" lon="2.64744">
        <ele>664.888916</ele>
        <time>2014-08-09T09:18:09Z</time>
      </trkpt>
      <trkpt lat="44.32376" lon="2.64739">
        <ele>665.3696289</ele>
        <time>2014-08-09T09:18:13Z</time>
      </trkpt>
      <trkpt lat="44.32381" lon="2.64727">
        <ele>664.888916</ele>
        <time>2014-08-09T09:18:18Z</time>
      </trkpt>
      <trkpt lat="44.32386" lon="2.64711">
        <ele>663.4470215</ele>
        <time>2014-08-09T09:18:23Z</time>
      </trkpt>
      <trkpt lat="44.32396" lon="2.64693">
        <ele>661.5244141</ele>
        <time>2014-08-09T09:18:28Z</time>
      </trkpt>
      <trkpt lat="44.32403" lon="2.64677">
        <ele>660.5629883</ele>
        <time>2014-08-09T09:18:33Z</time>
      </trkpt>
      <trkpt lat="44.32407" lon="2.64665">
        <ele>660.0822754</ele>
        <time>2014-08-09T09:18:37Z</time>
      </trkpt>
      <trkpt lat="44.32414" lon="2.64648">
        <ele>660.0822754</ele>
        <time>2014-08-09T09:18:42Z</time>
      </trkpt>
      <trkpt lat="44.32418" lon="2.64634">
        <ele>660.0822754</ele>
        <time>2014-08-09T09:18:46Z</time>
      </trkpt>
      <trkpt lat="44.32423" lon="2.64617">
        <ele>660.5629883</ele>
        <time>2014-08-09T09:18:51Z</time>
      </trkpt>
      <trkpt lat="44.32429" lon="2.6461">
        <ele>661.5244141</ele>
        <time>2014-08-09T09:18:53Z</time>
      </trkpt>
      <trkpt lat="44.32433" lon="2.64592">
        <ele>661.0437012</ele>
        <time>2014-08-09T09:18:58Z</time>
      </trkpt>
      <trkpt lat="44.32434" lon="2.64588">
        <ele>661.0437012</ele>
        <time>2014-08-09T09:18:59Z</time>
      </trkpt>
      <trkpt lat="44.32438" lon="2.64566">
        <ele>661.0437012</ele>
        <time>2014-08-09T09:19:05Z</time>
      </trkpt>
      <trkpt lat="44.32442" lon="2.64559">
        <ele>661.5244141</ele>
        <time>2014-08-09T09:19:07Z</time>
      </trkpt>
      <trkpt lat="44.32452" lon="2.64538">
        <ele>661.5244141</ele>
        <time>2014-08-09T09:19:14Z</time>
      </trkpt>
      <trkpt lat="44.32457" lon="2.64524">
        <ele>660.5629883</ele>
        <time>2014-08-09T09:19:19Z</time>
      </trkpt>
      <trkpt lat="44.32463" lon="2.64511">
        <ele>660.0822754</ele>
        <time>2014-08-09T09:19:24Z</time>
      </trkpt>
      <trkpt lat="44.32469" lon="2.64498">
        <ele>661.5244141</ele>
        <time>2014-08-09T09:19:28Z</time>
      </trkpt>
      <trkpt lat="44.32477" lon="2.64482">
        <ele>661.0437012</ele>
        <time>2014-08-09T09:19:33Z</time>
      </trkpt>
      <trkpt lat="44.3248" lon="2.64469">
        <ele>659.6018066</ele>
        <time>2014-08-09T09:19:37Z</time>
      </trkpt>
      <trkpt lat="44.32488" lon="2.64445">
        <ele>656.2370605</ele>
        <time>2014-08-09T09:19:43Z</time>
      </trkpt>
      <trkpt lat="44.32492" lon="2.6443">
        <ele>653.8339844</ele>
        <time>2014-08-09T09:19:47Z</time>
      </trkpt>
      <trkpt lat="44.32489" lon="2.6441">
        <ele>652.3918457</ele>
        <time>2014-08-09T09:19:52Z</time>
      </trkpt>
      <trkpt lat="44.3249" lon="2.64395">
        <ele>652.8725586</ele>
        <time>2014-08-09T09:19:56Z</time>
      </trkpt>
      <trkpt lat="44.32493" lon="2.64378">
        <ele>654.3146973</ele>
        <time>2014-08-09T09:20:01Z</time>
      </trkpt>
      <trkpt lat="44.32495" lon="2.6436">
        <ele>654.3146973</ele>
        <time>2014-08-09T09:20:06Z</time>
      </trkpt>
      <trkpt lat="44.32492" lon="2.64344">
        <ele>654.3146973</ele>
        <time>2014-08-09T09:20:10Z</time>
      </trkpt>
      <trkpt lat="44.32494" lon="2.64326">
        <ele>653.3532715</ele>
        <time>2014-08-09T09:20:15Z</time>
      </trkpt>
      <trkpt lat="44.32493" lon="2.64323">
        <ele>653.3532715</ele>
        <time>2014-08-09T09:20:16Z</time>
      </trkpt>
      <trkpt lat="44.32489" lon="2.64301">
        <ele>653.3532715</ele>
        <time>2014-08-09T09:20:22Z</time>
      </trkpt>
      <trkpt lat="44.32487" lon="2.64282">
        <ele>653.3532715</ele>
        <time>2014-08-09T09:20:27Z</time>
      </trkpt>
      <trkpt lat="44.32485" lon="2.64265">
        <ele>654.3146973</ele>
        <time>2014-08-09T09:20:31Z</time>
      </trkpt>
      <trkpt lat="44.32483" lon="2.64253">
        <ele>654.795166</ele>
        <time>2014-08-09T09:20:34Z</time>
      </trkpt>
      <trkpt lat="44.32477" lon="2.64232">
        <ele>654.795166</ele>
        <time>2014-08-09T09:20:40Z</time>
      </trkpt>
      <trkpt lat="44.32474" lon="2.6422">
        <ele>653.8339844</ele>
        <time>2014-08-09T09:20:44Z</time>
      </trkpt>
      <trkpt lat="44.32471" lon="2.64203">
        <ele>655.2758789</ele>
        <time>2014-08-09T09:20:49Z</time>
      </trkpt>
      <trkpt lat="44.32469" lon="2.64195">
        <ele>656.2370605</ele>
        <time>2014-08-09T09:20:51Z</time>
      </trkpt>
      <trkpt lat="44.32466" lon="2.64178">
        <ele>656.2370605</ele>
        <time>2014-08-09T09:20:56Z</time>
      </trkpt>
      <trkpt lat="44.32466" lon="2.64175">
        <ele>655.2758789</ele>
        <time>2014-08-09T09:20:57Z</time>
      </trkpt>
      <trkpt lat="44.32473" lon="2.6416">
        <ele>652.8725586</ele>
        <time>2014-08-09T09:21:01Z</time>
      </trkpt>
      <trkpt lat="44.32477" lon="2.64146">
        <ele>650.4692383</ele>
        <time>2014-08-09T09:21:05Z</time>
      </trkpt>
      <trkpt lat="44.32477" lon="2.64124">
        <ele>648.5463867</ele>
        <time>2014-08-09T09:21:10Z</time>
      </trkpt>
      <trkpt lat="44.32472" lon="2.64107">
        <ele>647.1044922</ele>
        <time>2014-08-09T09:21:15Z</time>
      </trkpt>
      <trkpt lat="44.32465" lon="2.64098">
        <ele>646.6240234</ele>
        <time>2014-08-09T09:21:21Z</time>
      </trkpt>
      <trkpt lat="44.32458" lon="2.64086">
        <ele>648.5463867</ele>
        <time>2014-08-09T09:21:25Z</time>
      </trkpt>
      <trkpt lat="44.32453" lon="2.64072">
        <ele>651.4304199</ele>
        <time>2014-08-09T09:21:29Z</time>
      </trkpt>
      <trkpt lat="44.32459" lon="2.64055">
        <ele>651.4304199</ele>
        <time>2014-08-09T09:21:34Z</time>
      </trkpt>
      <trkpt lat="44.32461" lon="2.64052">
        <ele>651.9111328</ele>
        <time>2014-08-09T09:21:35Z</time>
      </trkpt>
      <trkpt lat="44.32478" lon="2.6404">
        <ele>651.4304199</ele>
        <time>2014-08-09T09:21:42Z</time>
      </trkpt>
      <trkpt lat="44.32489" lon="2.64029">
        <ele>651.9111328</ele>
        <time>2014-08-09T09:21:47Z</time>
      </trkpt>
      <trkpt lat="44.32494" lon="2.64012">
        <ele>652.3918457</ele>
        <time>2014-08-09T09:21:52Z</time>
      </trkpt>
      <trkpt lat="44.32497" lon="2.63997">
        <ele>651.4304199</ele>
        <time>2014-08-09T09:21:56Z</time>
      </trkpt>
      <trkpt lat="44.32503" lon="2.63982">
        <ele>651.4304199</ele>
        <time>2014-08-09T09:22:01Z</time>
      </trkpt>
      <trkpt lat="44.32509" lon="2.63965">
        <ele>652.8725586</ele>
        <time>2014-08-09T09:22:06Z</time>
      </trkpt>
      <trkpt lat="44.32516" lon="2.63951">
        <ele>653.3532715</ele>
        <time>2014-08-09T09:22:10Z</time>
      </trkpt>
      <trkpt lat="44.32517" lon="2.63947">
        <ele>652.3918457</ele>
        <time>2014-08-09T09:22:11Z</time>
      </trkpt>
      <trkpt lat="44.32513" lon="2.63926">
        <ele>649.5078125</ele>
        <time>2014-08-09T09:22:16Z</time>
      </trkpt>
      <trkpt lat="44.32507" lon="2.63912">
        <ele>649.0270996</ele>
        <time>2014-08-09T09:22:20Z</time>
      </trkpt>
      <trkpt lat="44.32502" lon="2.63895">
        <ele>650.4692383</ele>
        <time>2014-08-09T09:22:25Z</time>
      </trkpt>
      <trkpt lat="44.32499" lon="2.63889">
        <ele>651.4304199</ele>
        <time>2014-08-09T09:22:27Z</time>
      </trkpt>
      <trkpt lat="44.32497" lon="2.63882">
        <ele>652.3918457</ele>
        <time>2014-08-09T09:22:29Z</time>
      </trkpt>
      <trkpt lat="44.32495" lon="2.63872">
        <ele>654.795166</ele>
        <time>2014-08-09T09:22:33Z</time>
      </trkpt>
      <trkpt lat="44.32494" lon="2.63862">
        <ele>655.2758789</ele>
        <time>2014-08-09T09:22:36Z</time>
      </trkpt>
      <trkpt lat="44.32496" lon="2.63856">
        <ele>656.7177734</ele>
        <time>2014-08-09T09:22:38Z</time>
      </trkpt>
      <trkpt lat="44.32506" lon="2.63845">
        <ele>658.6403809</ele>
        <time>2014-08-09T09:22:43Z</time>
      </trkpt>
      <trkpt lat="44.32521" lon="2.63836">
        <ele>658.6403809</ele>
        <time>2014-08-09T09:22:49Z</time>
      </trkpt>
      <trkpt lat="44.32528" lon="2.63832">
        <ele>658.1599121</ele>
        <time>2014-08-09T09:22:52Z</time>
      </trkpt>
      <trkpt lat="44.32536" lon="2.6382">
        <ele>657.1984863</ele>
        <time>2014-08-09T09:22:57Z</time>
      </trkpt>
      <trkpt lat="44.32546" lon="2.63808">
        <ele>656.7177734</ele>
        <time>2014-08-09T09:23:03Z</time>
      </trkpt>
      <trkpt lat="44.32547" lon="2.63806">
        <ele>657.1984863</ele>
        <time>2014-08-09T09:23:04Z</time>
      </trkpt>
      <trkpt lat="44.32558" lon="2.63801">
        <ele>659.6018066</ele>
        <time>2014-08-09T09:23:10Z</time>
      </trkpt>
      <trkpt lat="44.32569" lon="2.63797">
        <ele>660.0822754</ele>
        <time>2014-08-09T09:23:15Z</time>
      </trkpt>
      <trkpt lat="44.32581" lon="2.63792">
        <ele>659.1210938</ele>
        <time>2014-08-09T09:23:19Z</time>
      </trkpt>
      <trkpt lat="44.32594" lon="2.63787">
        <ele>658.6403809</ele>
        <time>2014-08-09T09:23:24Z</time>
      </trkpt>
      <trkpt lat="44.32606" lon="2.63783">
        <ele>656.2370605</ele>
        <time>2014-08-09T09:23:28Z</time>
      </trkpt>
      <trkpt lat="44.3262" lon="2.63777">
        <ele>654.795166</ele>
        <time>2014-08-09T09:23:33Z</time>
      </trkpt>
      <trkpt lat="44.32634" lon="2.63771">
        <ele>654.3146973</ele>
        <time>2014-08-09T09:23:38Z</time>
      </trkpt>
      <trkpt lat="44.32647" lon="2.63764">
        <ele>653.8339844</ele>
        <time>2014-08-09T09:23:43Z</time>
      </trkpt>
      <trkpt lat="44.32661" lon="2.63755">
        <ele>651.4304199</ele>
        <time>2014-08-09T09:23:48Z</time>
      </trkpt>
      <trkpt lat="44.32671" lon="2.63745">
        <ele>649.9885254</ele>
        <time>2014-08-09T09:23:52Z</time>
      </trkpt>
      <trkpt lat="44.32679" lon="2.63733">
        <ele>648.5463867</ele>
        <time>2014-08-09T09:23:56Z</time>
      </trkpt>
      <trkpt lat="44.32687" lon="2.6372">
        <ele>647.1044922</ele>
        <time>2014-08-09T09:24:00Z</time>
      </trkpt>
      <trkpt lat="44.32697" lon="2.63704">
        <ele>646.1433105</ele>
        <time>2014-08-09T09:24:05Z</time>
      </trkpt>
      <trkpt lat="44.32705" lon="2.63689">
        <ele>644.7011719</ele>
        <time>2014-08-09T09:24:10Z</time>
      </trkpt>
      <trkpt lat="44.32714" lon="2.63674">
        <ele>643.7399902</ele>
        <time>2014-08-09T09:24:15Z</time>
      </trkpt>
      <trkpt lat="44.32723" lon="2.63658">
        <ele>642.7788086</ele>
        <time>2014-08-09T09:24:20Z</time>
      </trkpt>
      <trkpt lat="44.3273" lon="2.63641">
        <ele>641.3366699</ele>
        <time>2014-08-09T09:24:25Z</time>
      </trkpt>
      <trkpt lat="44.32738" lon="2.63627">
        <ele>639.8947754</ele>
        <time>2014-08-09T09:24:29Z</time>
      </trkpt>
      <trkpt lat="44.32741" lon="2.63617">
        <ele>639.8947754</ele>
        <time>2014-08-09T09:24:32Z</time>
      </trkpt>
      <trkpt lat="44.32748" lon="2.636">
        <ele>639.8947754</ele>
        <time>2014-08-09T09:24:37Z</time>
      </trkpt>
      <trkpt lat="44.32759" lon="2.6358">
        <ele>637.972168</ele>
        <time>2014-08-09T09:24:43Z</time>
      </trkpt>
      <trkpt lat="44.32762" lon="2.63565">
        <ele>637.0107422</ele>
        <time>2014-08-09T09:24:47Z</time>
      </trkpt>
      <trkpt lat="44.32766" lon="2.63546">
        <ele>636.0495605</ele>
        <time>2014-08-09T09:24:52Z</time>
      </trkpt>
      <trkpt lat="44.32768" lon="2.63536">
        <ele>636.0495605</ele>
        <time>2014-08-09T09:24:55Z</time>
      </trkpt>
      <trkpt lat="44.3277" lon="2.63517">
        <ele>635.0881348</ele>
        <time>2014-08-09T09:25:00Z</time>
      </trkpt>
      <trkpt lat="44.32774" lon="2.63502">
        <ele>634.6074219</ele>
        <time>2014-08-09T09:25:04Z</time>
      </trkpt>
      <trkpt lat="44.32776" lon="2.63481">
        <ele>633.6459961</ele>
        <time>2014-08-09T09:25:09Z</time>
      </trkpt>
      <trkpt lat="44.32775" lon="2.63466">
        <ele>633.1652832</ele>
        <time>2014-08-09T09:25:13Z</time>
      </trkpt>
      <trkpt lat="44.32771" lon="2.63447">
        <ele>632.6848145</ele>
        <time>2014-08-09T09:25:18Z</time>
      </trkpt>
      <trkpt lat="44.32769" lon="2.63432">
        <ele>630.2814941</ele>
        <time>2014-08-09T09:25:22Z</time>
      </trkpt>
      <trkpt lat="44.32776" lon="2.63416">
        <ele>629.8007813</ele>
        <time>2014-08-09T09:25:27Z</time>
      </trkpt>
      <trkpt lat="44.32786" lon="2.63409">
        <ele>628.8395996</ele>
        <time>2014-08-09T09:25:31Z</time>
      </trkpt>
      <trkpt lat="44.32791" lon="2.63407">
        <ele>628.8395996</ele>
        <time>2014-08-09T09:25:33Z</time>
      </trkpt>
      <trkpt lat="44.32811" lon="2.63406">
        <ele>626.9169922</ele>
        <time>2014-08-09T09:25:40Z</time>
      </trkpt>
      <trkpt lat="44.32827" lon="2.63402">
        <ele>626.4362793</ele>
        <time>2014-08-09T09:25:45Z</time>
      </trkpt>
      <trkpt lat="44.3284" lon="2.63394">
        <ele>624.9943848</ele>
        <time>2014-08-09T09:25:50Z</time>
      </trkpt>
      <trkpt lat="44.32848" lon="2.63385">
        <ele>624.5136719</ele>
        <time>2014-08-09T09:25:54Z</time>
      </trkpt>
      <trkpt lat="44.32859" lon="2.63374">
        <ele>624.032959</ele>
        <time>2014-08-09T09:25:59Z</time>
      </trkpt>
      <trkpt lat="44.32867" lon="2.63365">
        <ele>623.5524902</ele>
        <time>2014-08-09T09:26:03Z</time>
      </trkpt>
      <trkpt lat="44.32877" lon="2.63354">
        <ele>624.032959</ele>
        <time>2014-08-09T09:26:08Z</time>
      </trkpt>
      <trkpt lat="44.32894" lon="2.63341">
        <ele>623.0717773</ele>
        <time>2014-08-09T09:26:15Z</time>
      </trkpt>
      <trkpt lat="44.32909" lon="2.63331">
        <ele>621.6296387</ele>
        <time>2014-08-09T09:26:21Z</time>
      </trkpt>
      <trkpt lat="44.32924" lon="2.63324">
        <ele>619.2263184</ele>
        <time>2014-08-09T09:26:27Z</time>
      </trkpt>
      <trkpt lat="44.32941" lon="2.6332">
        <ele>617.3037109</ele>
        <time>2014-08-09T09:26:33Z</time>
      </trkpt>
      <trkpt lat="44.32954" lon="2.63323">
        <ele>616.3422852</ele>
        <time>2014-08-09T09:26:38Z</time>
      </trkpt>
      <trkpt lat="44.32966" lon="2.63331">
        <ele>616.3422852</ele>
        <time>2014-08-09T09:26:43Z</time>
      </trkpt>
      <trkpt lat="44.32979" lon="2.63328">
        <ele>616.3422852</ele>
        <time>2014-08-09T09:26:47Z</time>
      </trkpt>
      <trkpt lat="44.32986" lon="2.63318">
        <ele>614.9003906</ele>
        <time>2014-08-09T09:26:51Z</time>
      </trkpt>
      <trkpt lat="44.32991" lon="2.63297">
        <ele>614.4196777</ele>
        <time>2014-08-09T09:26:58Z</time>
      </trkpt>
      <trkpt lat="44.32994" lon="2.63285">
        <ele>614.9003906</ele>
        <time>2014-08-09T09:27:02Z</time>
      </trkpt>
      <trkpt lat="44.32995" lon="2.63282">
        <ele>614.9003906</ele>
        <time>2014-08-09T09:27:03Z</time>
      </trkpt>
      <trkpt lat="44.33005" lon="2.63266">
        <ele>615.3811035</ele>
        <time>2014-08-09T09:27:09Z</time>
      </trkpt>
      <trkpt lat="44.33011" lon="2.63252">
        <ele>616.3422852</ele>
        <time>2014-08-09T09:27:14Z</time>
      </trkpt>
      <trkpt lat="44.33019" lon="2.63241">
        <ele>617.7841797</ele>
        <time>2014-08-09T09:27:18Z</time>
      </trkpt>
      <trkpt lat="44.33027" lon="2.63228">
        <ele>620.1877441</ele>
        <time>2014-08-09T09:27:23Z</time>
      </trkpt>
      <trkpt lat="44.33036" lon="2.63207">
        <ele>623.5524902</ele>
        <time>2014-08-09T09:27:29Z</time>
      </trkpt>
      <trkpt lat="44.33045" lon="2.63196">
        <ele>624.5136719</ele>
        <time>2014-08-09T09:27:33Z</time>
      </trkpt>
      <trkpt lat="44.33047" lon="2.63194">
        <ele>624.9943848</ele>
        <time>2014-08-09T09:27:34Z</time>
      </trkpt>
      <trkpt lat="44.33059" lon="2.6318">
        <ele>624.9943848</ele>
        <time>2014-08-09T09:27:40Z</time>
      </trkpt>
      <trkpt lat="44.33065" lon="2.6317">
        <ele>624.9943848</ele>
        <time>2014-08-09T09:27:44Z</time>
      </trkpt>
      <trkpt lat="44.33073" lon="2.63156">
        <ele>624.9943848</ele>
        <time>2014-08-09T09:27:49Z</time>
      </trkpt>
      <trkpt lat="44.33082" lon="2.63139">
        <ele>624.9943848</ele>
        <time>2014-08-09T09:27:55Z</time>
      </trkpt>
      <trkpt lat="44.33094" lon="2.63122">
        <ele>624.9943848</ele>
        <time>2014-08-09T09:28:01Z</time>
      </trkpt>
      <trkpt lat="44.33102" lon="2.63108">
        <ele>625.4748535</ele>
        <time>2014-08-09T09:28:06Z</time>
      </trkpt>
      <trkpt lat="44.33109" lon="2.63094">
        <ele>626.4362793</ele>
        <time>2014-08-09T09:28:11Z</time>
      </trkpt>
      <trkpt lat="44.33116" lon="2.63083">
        <ele>627.3977051</ele>
        <time>2014-08-09T09:28:15Z</time>
      </trkpt>
      <trkpt lat="44.33125" lon="2.63067">
        <ele>626.4362793</ele>
        <time>2014-08-09T09:28:21Z</time>
      </trkpt>
      <trkpt lat="44.33134" lon="2.63054">
        <ele>625.4748535</ele>
        <time>2014-08-09T09:28:26Z</time>
      </trkpt>
      <trkpt lat="44.33142" lon="2.6304">
        <ele>624.9943848</ele>
        <time>2014-08-09T09:28:31Z</time>
      </trkpt>
      <trkpt lat="44.33153" lon="2.63025">
        <ele>624.9943848</ele>
        <time>2014-08-09T09:28:37Z</time>
      </trkpt>
      <trkpt lat="44.33161" lon="2.63012">
        <ele>623.0717773</ele>
        <time>2014-08-09T09:28:41Z</time>
      </trkpt>
      <trkpt lat="44.33169" lon="2.62999">
        <ele>622.1103516</ele>
        <time>2014-08-09T09:28:46Z</time>
      </trkpt>
      <trkpt lat="44.33178" lon="2.62985">
        <ele>621.1491699</ele>
        <time>2014-08-09T09:28:51Z</time>
      </trkpt>
      <trkpt lat="44.33189" lon="2.62972">
        <ele>621.1491699</ele>
        <time>2014-08-09T09:28:56Z</time>
      </trkpt>
      <trkpt lat="44.33197" lon="2.62963">
        <ele>621.1491699</ele>
        <time>2014-08-09T09:29:00Z</time>
      </trkpt>
      <trkpt lat="44.33207" lon="2.62952">
        <ele>621.6296387</ele>
        <time>2014-08-09T09:29:05Z</time>
      </trkpt>
      <trkpt lat="44.3322" lon="2.62941">
        <ele>620.668457</ele>
        <time>2014-08-09T09:29:10Z</time>
      </trkpt>
      <trkpt lat="44.33233" lon="2.62932">
        <ele>619.2263184</ele>
        <time>2014-08-09T09:29:15Z</time>
      </trkpt>
      <trkpt lat="44.33246" lon="2.62928">
        <ele>618.2648926</ele>
        <time>2014-08-09T09:29:19Z</time>
      </trkpt>
      <trkpt lat="44.33265" lon="2.62924">
        <ele>617.3037109</ele>
        <time>2014-08-09T09:29:25Z</time>
      </trkpt>
      <trkpt lat="44.33278" lon="2.62921">
        <ele>615.3811035</ele>
        <time>2014-08-09T09:29:30Z</time>
      </trkpt>
      <trkpt lat="44.33289" lon="2.62915">
        <ele>614.9003906</ele>
        <time>2014-08-09T09:29:34Z</time>
      </trkpt>
      <trkpt lat="44.33298" lon="2.62912">
        <ele>613.9389648</ele>
        <time>2014-08-09T09:29:37Z</time>
      </trkpt>
      <trkpt lat="44.3331" lon="2.62909">
        <ele>612.9777832</ele>
        <time>2014-08-09T09:29:41Z</time>
      </trkpt>
      <trkpt lat="44.33323" lon="2.62906">
        <ele>611.5358887</ele>
        <time>2014-08-09T09:29:46Z</time>
      </trkpt>
      <trkpt lat="44.33337" lon="2.62905">
        <ele>611.5358887</ele>
        <time>2014-08-09T09:29:51Z</time>
      </trkpt>
      <trkpt lat="44.33352" lon="2.629">
        <ele>611.0551758</ele>
        <time>2014-08-09T09:29:57Z</time>
      </trkpt>
      <trkpt lat="44.3336" lon="2.62885">
        <ele>611.5358887</ele>
        <time>2014-08-09T09:30:03Z</time>
      </trkpt>
      <trkpt lat="44.33361" lon="2.62874">
        <ele>612.4970703</ele>
        <time>2014-08-09T09:30:06Z</time>
      </trkpt>
      <trkpt lat="44.33357" lon="2.62854">
        <ele>613.4584961</ele>
        <time>2014-08-09T09:30:12Z</time>
      </trkpt>
      <trkpt lat="44.33352" lon="2.62841">
        <ele>614.4196777</ele>
        <time>2014-08-09T09:30:16Z</time>
      </trkpt>
      <trkpt lat="44.33345" lon="2.62821">
        <ele>614.9003906</ele>
        <time>2014-08-09T09:30:22Z</time>
      </trkpt>
      <trkpt lat="44.33344" lon="2.62807">
        <ele>616.3422852</ele>
        <time>2014-08-09T09:30:26Z</time>
      </trkpt>
      <trkpt lat="44.33344" lon="2.62791">
        <ele>617.7841797</ele>
        <time>2014-08-09T09:30:31Z</time>
      </trkpt>
      <trkpt lat="44.33346" lon="2.62771">
        <ele>619.7070313</ele>
        <time>2014-08-09T09:30:37Z</time>
      </trkpt>
      <trkpt lat="44.33347" lon="2.62765">
        <ele>620.1877441</ele>
        <time>2014-08-09T09:30:39Z</time>
      </trkpt>
      <trkpt lat="44.33346" lon="2.62748">
        <ele>622.1103516</ele>
        <time>2014-08-09T09:30:44Z</time>
      </trkpt>
      <trkpt lat="44.33344" lon="2.6273">
        <ele>624.9943848</ele>
        <time>2014-08-09T09:30:49Z</time>
      </trkpt>
      <trkpt lat="44.33343" lon="2.62718">
        <ele>625.9555664</ele>
        <time>2014-08-09T09:30:53Z</time>
      </trkpt>
      <trkpt lat="44.33343" lon="2.62706">
        <ele>627.3977051</ele>
        <time>2014-08-09T09:30:57Z</time>
      </trkpt>
      <trkpt lat="44.33342" lon="2.62703">
        <ele>627.3977051</ele>
        <time>2014-08-09T09:30:58Z</time>
      </trkpt>
      <trkpt lat="44.3334" lon="2.62685">
        <ele>628.8395996</ele>
        <time>2014-08-09T09:31:03Z</time>
      </trkpt>
      <trkpt lat="44.33337" lon="2.62671">
        <ele>631.2429199</ele>
        <time>2014-08-09T09:31:08Z</time>
      </trkpt>
      <trkpt lat="44.33337" lon="2.62656">
        <ele>632.6848145</ele>
        <time>2014-08-09T09:31:13Z</time>
      </trkpt>
      <trkpt lat="44.3334" lon="2.6264">
        <ele>634.126709</ele>
        <time>2014-08-09T09:31:18Z</time>
      </trkpt>
      <trkpt lat="44.33341" lon="2.6263">
        <ele>634.126709</ele>
        <time>2014-08-09T09:31:22Z</time>
      </trkpt>
      <trkpt lat="44.33345" lon="2.62615">
        <ele>633.6459961</ele>
        <time>2014-08-09T09:31:27Z</time>
      </trkpt>
      <trkpt lat="44.33349" lon="2.62599">
        <ele>633.6459961</ele>
        <time>2014-08-09T09:31:32Z</time>
      </trkpt>
      <trkpt lat="44.33351" lon="2.62593">
        <ele>634.6074219</ele>
        <time>2014-08-09T09:31:34Z</time>
      </trkpt>
      <trkpt lat="44.33355" lon="2.62576">
        <ele>636.5302734</ele>
        <time>2014-08-09T09:31:40Z</time>
      </trkpt>
      <trkpt lat="44.33358" lon="2.62562">
        <ele>637.0107422</ele>
        <time>2014-08-09T09:31:44Z</time>
      </trkpt>
      <trkpt lat="44.33363" lon="2.62547">
        <ele>637.0107422</ele>
        <time>2014-08-09T09:31:49Z</time>
      </trkpt>
      <trkpt lat="44.33365" lon="2.62542">
        <ele>636.5302734</ele>
        <time>2014-08-09T09:31:51Z</time>
      </trkpt>
      <trkpt lat="44.33369" lon="2.62526">
        <ele>636.0495605</ele>
        <time>2014-08-09T09:31:56Z</time>
      </trkpt>
      <trkpt lat="44.33374" lon="2.62513">
        <ele>636.5302734</ele>
        <time>2014-08-09T09:32:00Z</time>
      </trkpt>
      <trkpt lat="44.33376" lon="2.6251">
        <ele>636.5302734</ele>
        <time>2014-08-09T09:32:01Z</time>
      </trkpt>
      <trkpt lat="44.3338" lon="2.62496">
        <ele>637.0107422</ele>
        <time>2014-08-09T09:32:06Z</time>
      </trkpt>
      <trkpt lat="44.33382" lon="2.62478">
        <ele>637.0107422</ele>
        <time>2014-08-09T09:32:12Z</time>
      </trkpt>
      <trkpt lat="44.33385" lon="2.62466">
        <ele>637.0107422</ele>
        <time>2014-08-09T09:32:16Z</time>
      </trkpt>
      <trkpt lat="44.33389" lon="2.6245">
        <ele>637.4914551</ele>
        <time>2014-08-09T09:32:21Z</time>
      </trkpt>
      <trkpt lat="44.33391" lon="2.62443">
        <ele>637.4914551</ele>
        <time>2014-08-09T09:32:23Z</time>
      </trkpt>
      <trkpt lat="44.33397" lon="2.62425">
        <ele>637.972168</ele>
        <time>2014-08-09T09:32:29Z</time>
      </trkpt>
      <trkpt lat="44.33403" lon="2.62411">
        <ele>638.4528809</ele>
        <time>2014-08-09T09:32:34Z</time>
      </trkpt>
      <trkpt lat="44.33405" lon="2.62408">
        <ele>638.4528809</ele>
        <time>2014-08-09T09:32:35Z</time>
      </trkpt>
      <trkpt lat="44.33412" lon="2.62401">
        <ele>639.8947754</ele>
        <time>2014-08-09T09:32:38Z</time>
      </trkpt>
      <trkpt lat="44.33422" lon="2.62404">
        <ele>639.8947754</ele>
        <time>2014-08-09T09:32:44Z</time>
      </trkpt>
      <trkpt lat="44.33427" lon="2.62417">
        <ele>640.855957</ele>
        <time>2014-08-09T09:32:49Z</time>
      </trkpt>
      <trkpt lat="44.33429" lon="2.6243">
        <ele>640.855957</ele>
        <time>2014-08-09T09:32:53Z</time>
      </trkpt>
      <trkpt lat="44.33434" lon="2.6245">
        <ele>642.7788086</ele>
        <time>2014-08-09T09:33:00Z</time>
      </trkpt>
      <trkpt lat="44.33437" lon="2.6246">
        <ele>644.2207031</ele>
        <time>2014-08-09T09:33:03Z</time>
      </trkpt>
      <trkpt lat="44.33443" lon="2.62479">
        <ele>645.6625977</ele>
        <time>2014-08-09T09:33:09Z</time>
      </trkpt>
      <trkpt lat="44.33449" lon="2.62495">
        <ele>648.065918</ele>
        <time>2014-08-09T09:33:14Z</time>
      </trkpt>
      <trkpt lat="44.33454" lon="2.6251">
        <ele>651.4304199</ele>
        <time>2014-08-09T09:33:19Z</time>
      </trkpt>
      <trkpt lat="44.33461" lon="2.62526">
        <ele>655.2758789</ele>
        <time>2014-08-09T09:33:25Z</time>
      </trkpt>
      <trkpt lat="44.33468" lon="2.62542">
        <ele>656.7177734</ele>
        <time>2014-08-09T09:33:31Z</time>
      </trkpt>
      <trkpt lat="44.33477" lon="2.62555">
        <ele>658.1599121</ele>
        <time>2014-08-09T09:33:37Z</time>
      </trkpt>
      <trkpt lat="44.33481" lon="2.62561">
        <ele>659.1210938</ele>
        <time>2014-08-09T09:33:40Z</time>
      </trkpt>
      <trkpt lat="44.3349" lon="2.62574">
        <ele>658.6403809</ele>
        <time>2014-08-09T09:33:46Z</time>
      </trkpt>
      <trkpt lat="44.33501" lon="2.62586">
        <ele>659.6018066</ele>
        <time>2014-08-09T09:33:52Z</time>
      </trkpt>
      <trkpt lat="44.33513" lon="2.62594">
        <ele>659.1210938</ele>
        <time>2014-08-09T09:33:57Z</time>
      </trkpt>
      <trkpt lat="44.33525" lon="2.62603">
        <ele>659.6018066</ele>
        <time>2014-08-09T09:34:03Z</time>
      </trkpt>
      <trkpt lat="44.33539" lon="2.62609">
        <ele>659.1210938</ele>
        <time>2014-08-09T09:34:09Z</time>
      </trkpt>
      <trkpt lat="44.33551" lon="2.62616">
        <ele>660.5629883</ele>
        <time>2014-08-09T09:34:15Z</time>
      </trkpt>
      <trkpt lat="44.33565" lon="2.62625">
        <ele>662.4855957</ele>
        <time>2014-08-09T09:34:22Z</time>
      </trkpt>
      <trkpt lat="44.33575" lon="2.62629">
        <ele>662.9663086</ele>
        <time>2014-08-09T09:34:27Z</time>
      </trkpt>
      <trkpt lat="44.33589" lon="2.62637">
        <ele>666.3308105</ele>
        <time>2014-08-09T09:34:34Z</time>
      </trkpt>
      <trkpt lat="44.33601" lon="2.62642">
        <ele>666.3308105</ele>
        <time>2014-08-09T09:34:40Z</time>
      </trkpt>
      <trkpt lat="44.33613" lon="2.62646">
        <ele>667.7727051</ele>
        <time>2014-08-09T09:34:46Z</time>
      </trkpt>
      <trkpt lat="44.33621" lon="2.62648">
        <ele>668.734375</ele>
        <time>2014-08-09T09:34:50Z</time>
      </trkpt>
      <trkpt lat="44.33633" lon="2.62651">
        <ele>669.6958008</ele>
        <time>2014-08-09T09:34:55Z</time>
      </trkpt>
      <trkpt lat="44.33647" lon="2.62657">
        <ele>669.6958008</ele>
        <time>2014-08-09T09:35:01Z</time>
      </trkpt>
      <trkpt lat="44.33658" lon="2.62665">
        <ele>669.6958008</ele>
        <time>2014-08-09T09:35:06Z</time>
      </trkpt>
      <trkpt lat="44.33669" lon="2.62675">
        <ele>672.5795898</ele>
        <time>2014-08-09T09:35:12Z</time>
      </trkpt>
      <trkpt lat="44.3368" lon="2.62679">
        <ele>674.9829102</ele>
        <time>2014-08-09T09:35:17Z</time>
      </trkpt>
      <trkpt lat="44.33692" lon="2.62681">
        <ele>676.9055176</ele>
        <time>2014-08-09T09:35:22Z</time>
      </trkpt>
      <trkpt lat="44.33695" lon="2.62682">
        <ele>676.9055176</ele>
        <time>2014-08-09T09:35:23Z</time>
      </trkpt>
      <trkpt lat="44.33707" lon="2.62689">
        <ele>675.4633789</ele>
        <time>2014-08-09T09:35:28Z</time>
      </trkpt>
      <trkpt lat="44.33717" lon="2.62692">
        <ele>674.5021973</ele>
        <time>2014-08-09T09:35:32Z</time>
      </trkpt>
      <trkpt lat="44.33734" lon="2.62694">
        <ele>673.0603027</ele>
        <time>2014-08-09T09:35:38Z</time>
      </trkpt>
      <trkpt lat="44.33746" lon="2.62695">
        <ele>672.098877</ele>
        <time>2014-08-09T09:35:43Z</time>
      </trkpt>
      <trkpt lat="44.33758" lon="2.62695">
        <ele>671.6181641</ele>
        <time>2014-08-09T09:35:48Z</time>
      </trkpt>
      <trkpt lat="44.3377" lon="2.62695">
        <ele>672.098877</ele>
        <time>2014-08-09T09:35:53Z</time>
      </trkpt>
      <trkpt lat="44.33781" lon="2.62697">
        <ele>672.5795898</ele>
        <time>2014-08-09T09:35:57Z</time>
      </trkpt>
      <trkpt lat="44.3379" lon="2.62702">
        <ele>672.098877</ele>
        <time>2014-08-09T09:36:01Z</time>
      </trkpt>
      <trkpt lat="44.338" lon="2.62715">
        <ele>671.6181641</ele>
        <time>2014-08-09T09:36:06Z</time>
      </trkpt>
      <trkpt lat="44.33809" lon="2.62729">
        <ele>671.1376953</ele>
        <time>2014-08-09T09:36:12Z</time>
      </trkpt>
      <trkpt lat="44.33817" lon="2.62744">
        <ele>670.6569824</ele>
        <time>2014-08-09T09:36:17Z</time>
      </trkpt>
      <trkpt lat="44.33825" lon="2.6276">
        <ele>670.1762695</ele>
        <time>2014-08-09T09:36:22Z</time>
      </trkpt>
      <trkpt lat="44.33833" lon="2.62778">
        <ele>668.734375</ele>
        <time>2014-08-09T09:36:27Z</time>
      </trkpt>
      <trkpt lat="44.33835" lon="2.62782">
        <ele>668.2536621</ele>
        <time>2014-08-09T09:36:28Z</time>
      </trkpt>
      <trkpt lat="44.33843" lon="2.62796">
        <ele>666.3308105</ele>
        <time>2014-08-09T09:36:33Z</time>
      </trkpt>
      <trkpt lat="44.33848" lon="2.62806">
        <ele>665.3696289</ele>
        <time>2014-08-09T09:36:36Z</time>
      </trkpt>
      <trkpt lat="44.33855" lon="2.62816">
        <ele>664.4082031</ele>
        <time>2014-08-09T09:36:40Z</time>
      </trkpt>
      <trkpt lat="44.33863" lon="2.62832">
        <ele>662.9663086</ele>
        <time>2014-08-09T09:36:45Z</time>
      </trkpt>
      <trkpt lat="44.33871" lon="2.62843">
        <ele>662.9663086</ele>
        <time>2014-08-09T09:36:49Z</time>
      </trkpt>
      <trkpt lat="44.33876" lon="2.62852">
        <ele>662.9663086</ele>
        <time>2014-08-09T09:36:52Z</time>
      </trkpt>
      <trkpt lat="44.33881" lon="2.62868">
        <ele>662.4855957</ele>
        <time>2014-08-09T09:36:57Z</time>
      </trkpt>
      <trkpt lat="44.33882" lon="2.62875">
        <ele>662.005127</ele>
        <time>2014-08-09T09:36:59Z</time>
      </trkpt>
      <trkpt lat="44.33882" lon="2.62894">
        <ele>660.5629883</ele>
        <time>2014-08-09T09:37:04Z</time>
      </trkpt>
      <trkpt lat="44.33881" lon="2.62912">
        <ele>661.0437012</ele>
        <time>2014-08-09T09:37:09Z</time>
      </trkpt>
      <trkpt lat="44.33877" lon="2.62928">
        <ele>659.1210938</ele>
        <time>2014-08-09T09:37:14Z</time>
      </trkpt>
      <trkpt lat="44.33872" lon="2.62945">
        <ele>658.6403809</ele>
        <time>2014-08-09T09:37:19Z</time>
      </trkpt>
      <trkpt lat="44.33869" lon="2.62958">
        <ele>658.1599121</ele>
        <time>2014-08-09T09:37:23Z</time>
      </trkpt>
      <trkpt lat="44.33865" lon="2.6297">
        <ele>656.2370605</ele>
        <time>2014-08-09T09:37:27Z</time>
      </trkpt>
      <trkpt lat="44.33861" lon="2.62987">
        <ele>655.7565918</ele>
        <time>2014-08-09T09:37:32Z</time>
      </trkpt>
      <trkpt lat="44.33857" lon="2.63003">
        <ele>654.795166</ele>
        <time>2014-08-09T09:37:37Z</time>
      </trkpt>
      <trkpt lat="44.33852" lon="2.63023">
        <ele>654.3146973</ele>
        <time>2014-08-09T09:37:43Z</time>
      </trkpt>
      <trkpt lat="44.33849" lon="2.63037">
        <ele>654.3146973</ele>
        <time>2014-08-09T09:37:48Z</time>
      </trkpt>
      <trkpt lat="44.33846" lon="2.6305">
        <ele>653.8339844</ele>
        <time>2014-08-09T09:37:52Z</time>
      </trkpt>
      <trkpt lat="44.33841" lon="2.63071">
        <ele>654.3146973</ele>
        <time>2014-08-09T09:37:58Z</time>
      </trkpt>
      <trkpt lat="44.33835" lon="2.63095">
        <ele>653.3532715</ele>
        <time>2014-08-09T09:38:05Z</time>
      </trkpt>
      <trkpt lat="44.3383" lon="2.63119">
        <ele>653.3532715</ele>
        <time>2014-08-09T09:38:12Z</time>
      </trkpt>
      <trkpt lat="44.33825" lon="2.63126">
        <ele>653.3532715</ele>
        <time>2014-08-09T09:38:15Z</time>
      </trkpt>
      <trkpt lat="44.33808" lon="2.63126">
        <ele>655.2758789</ele>
        <time>2014-08-09T09:38:22Z</time>
      </trkpt>
      <trkpt lat="44.33796" lon="2.63119">
        <ele>657.1984863</ele>
        <time>2014-08-09T09:38:27Z</time>
      </trkpt>
      <trkpt lat="44.33781" lon="2.63111">
        <ele>657.6791992</ele>
        <time>2014-08-09T09:38:33Z</time>
      </trkpt>
      <trkpt lat="44.33767" lon="2.63104">
        <ele>657.6791992</ele>
        <time>2014-08-09T09:38:39Z</time>
      </trkpt>
      <trkpt lat="44.33756" lon="2.631">
        <ele>656.7177734</ele>
        <time>2014-08-09T09:38:44Z</time>
      </trkpt>
      <trkpt lat="44.33755" lon="2.631">
        <ele>655.7565918</ele>
        <time>2014-08-09T09:38:49Z</time>
      </trkpt>
      <trkpt lat="44.33755" lon="2.63099">
        <ele>655.7565918</ele>
        <time>2014-08-09T09:38:52Z</time>
      </trkpt>
      <trkpt lat="44.33751" lon="2.63096">
        <ele>656.2370605</ele>
        <time>2014-08-09T09:38:56Z</time>
      </trkpt>
      <trkpt lat="44.3374" lon="2.63095">
        <ele>656.2370605</ele>
        <time>2014-08-09T09:39:02Z</time>
      </trkpt>
      <trkpt lat="44.33735" lon="2.63092">
        <ele>656.2370605</ele>
        <time>2014-08-09T09:39:04Z</time>
      </trkpt>
      <trkpt lat="44.33717" lon="2.63086">
        <ele>654.795166</ele>
        <time>2014-08-09T09:39:11Z</time>
      </trkpt>
      <trkpt lat="44.33704" lon="2.63082">
        <ele>653.3532715</ele>
        <time>2014-08-09T09:39:16Z</time>
      </trkpt>
      <trkpt lat="44.33684" lon="2.63078">
        <ele>650.949707</ele>
        <time>2014-08-09T09:39:23Z</time>
      </trkpt>
      <trkpt lat="44.33667" lon="2.63076">
        <ele>649.0270996</ele>
        <time>2014-08-09T09:39:29Z</time>
      </trkpt>
      <trkpt lat="44.33651" lon="2.63073">
        <ele>648.065918</ele>
        <time>2014-08-09T09:39:35Z</time>
      </trkpt>
      <trkpt lat="44.33632" lon="2.63071">
        <ele>647.1044922</ele>
        <time>2014-08-09T09:39:42Z</time>
      </trkpt>
      <trkpt lat="44.33618" lon="2.63066">
        <ele>646.1433105</ele>
        <time>2014-08-09T09:39:47Z</time>
      </trkpt>
      <trkpt lat="44.33604" lon="2.6306">
        <ele>647.1044922</ele>
        <time>2014-08-09T09:39:53Z</time>
      </trkpt>
      <trkpt lat="44.33589" lon="2.63052">
        <ele>645.6625977</ele>
        <time>2014-08-09T09:39:59Z</time>
      </trkpt>
      <trkpt lat="44.33587" lon="2.63043">
        <ele>645.1818848</ele>
        <time>2014-08-09T09:40:03Z</time>
      </trkpt>
      <trkpt lat="44.33588" lon="2.63041">
        <ele>644.7011719</ele>
        <time>2014-08-09T09:40:07Z</time>
      </trkpt>
      <trkpt lat="44.33594" lon="2.63031">
        <ele>645.6625977</ele>
        <time>2014-08-09T09:40:11Z</time>
      </trkpt>
      <trkpt lat="44.33601" lon="2.63012">
        <ele>645.6625977</ele>
        <time>2014-08-09T09:40:17Z</time>
      </trkpt>
      <trkpt lat="44.33607" lon="2.62998">
        <ele>646.6240234</ele>
        <time>2014-08-09T09:40:22Z</time>
      </trkpt>
      <trkpt lat="44.33611" lon="2.62982">
        <ele>648.065918</ele>
        <time>2014-08-09T09:40:27Z</time>
      </trkpt>
      <trkpt lat="44.33615" lon="2.62969">
        <ele>648.065918</ele>
        <time>2014-08-09T09:40:31Z</time>
      </trkpt>
      <trkpt lat="44.33617" lon="2.62959">
        <ele>648.5463867</ele>
        <time>2014-08-09T09:40:34Z</time>
      </trkpt>
      <trkpt lat="44.33622" lon="2.62942">
        <ele>649.9885254</ele>
        <time>2014-08-09T09:40:40Z</time>
      </trkpt>
      <trkpt lat="44.33623" lon="2.62938">
        <ele>649.9885254</ele>
        <time>2014-08-09T09:40:43Z</time>
      </trkpt>
      <trkpt lat="44.33623" lon="2.62936">
        <ele>649.0270996</ele>
        <time>2014-08-09T09:40:50Z</time>
      </trkpt>
      <trkpt lat="44.33623" lon="2.62933">
        <ele>649.0270996</ele>
        <time>2014-08-09T09:40:57Z</time>
      </trkpt>
      <trkpt lat="44.33625" lon="2.62929">
        <ele>649.0270996</ele>
        <time>2014-08-09T09:41:02Z</time>
      </trkpt>
      <trkpt lat="44.33625" lon="2.62924">
        <ele>649.0270996</ele>
        <time>2014-08-09T09:41:04Z</time>
      </trkpt>
      <trkpt lat="44.33625" lon="2.62905">
        <ele>650.4692383</ele>
        <time>2014-08-09T09:41:10Z</time>
      </trkpt>
      <trkpt lat="44.33621" lon="2.62904">
        <ele>650.4692383</ele>
        <time>2014-08-09T09:41:12Z</time>
      </trkpt>
      <trkpt lat="44.33605" lon="2.62904">
        <ele>651.4304199</ele>
        <time>2014-08-09T09:41:18Z</time>
      </trkpt>
      <trkpt lat="44.33594" lon="2.62901">
        <ele>651.4304199</ele>
        <time>2014-08-09T09:41:22Z</time>
      </trkpt>
      <trkpt lat="44.33576" lon="2.62897">
        <ele>651.4304199</ele>
        <time>2014-08-09T09:41:29Z</time>
      </trkpt>
      <trkpt lat="44.33565" lon="2.62899">
        <ele>651.9111328</ele>
        <time>2014-08-09T09:41:34Z</time>
      </trkpt>
      <trkpt lat="44.33561" lon="2.62905">
        <ele>650.949707</ele>
        <time>2014-08-09T09:41:36Z</time>
      </trkpt>
      <trkpt lat="44.33562" lon="2.62918">
        <ele>649.0270996</ele>
        <time>2014-08-09T09:41:41Z</time>
      </trkpt>
      <trkpt lat="44.33562" lon="2.62922">
        <ele>649.0270996</ele>
        <time>2014-08-09T09:41:43Z</time>
      </trkpt>
      <trkpt lat="44.33564" lon="2.62925">
        <ele>648.5463867</ele>
        <time>2014-08-09T09:41:45Z</time>
      </trkpt>
      <trkpt lat="44.33568" lon="2.62927">
        <ele>646.6240234</ele>
        <time>2014-08-09T09:41:49Z</time>
      </trkpt>
      <trkpt lat="44.33572" lon="2.62924">
        <ele>645.6625977</ele>
        <time>2014-08-09T09:41:55Z</time>
      </trkpt>
      <trkpt lat="44.33572" lon="2.62924">
        <ele>645.1818848</ele>
        <time>2014-08-09T09:42:06Z</time>
      </trkpt>
      <trkpt lat="44.33573" lon="2.62924">
        <ele>646.1433105</ele>
        <time>2014-08-09T09:42:10Z</time>
      </trkpt>
      <trkpt lat="44.33581" lon="2.62921">
        <ele>647.1044922</ele>
        <time>2014-08-09T09:42:17Z</time>
      </trkpt>
      <trkpt lat="44.33582" lon="2.6292">
        <ele>647.5852051</ele>
        <time>2014-08-09T09:42:19Z</time>
      </trkpt>
      <trkpt lat="44.33582" lon="2.62912">
        <ele>647.1044922</ele>
        <time>2014-08-09T09:42:26Z</time>
      </trkpt>
      <trkpt lat="44.3358" lon="2.62911">
        <ele>646.6240234</ele>
        <time>2014-08-09T09:42:31Z</time>
      </trkpt>
      <trkpt lat="44.33578" lon="2.62909">
        <ele>646.1433105</ele>
        <time>2014-08-09T09:42:41Z</time>
      </trkpt>
      <trkpt lat="44.33575" lon="2.6291">
        <ele>644.7011719</ele>
        <time>2014-08-09T09:42:47Z</time>
      </trkpt>
      <trkpt lat="44.33575" lon="2.62911">
        <ele>643.7399902</ele>
        <time>2014-08-09T09:42:56Z</time>
      </trkpt>
      <trkpt lat="44.33575" lon="2.62912">
        <ele>642.7788086</ele>
        <time>2014-08-09T09:43:03Z</time>
      </trkpt>
      <trkpt lat="44.33575" lon="2.62912">
        <ele>643.7399902</ele>
        <time>2014-08-09T09:43:09Z</time>
      </trkpt>
      <trkpt lat="44.33575" lon="2.62912">
        <ele>642.2980957</ele>
        <time>2014-08-09T09:43:16Z</time>
      </trkpt>
      <trkpt lat="44.33575" lon="2.62912">
        <ele>641.8173828</ele>
        <time>2014-08-09T09:43:23Z</time>
      </trkpt>
      <trkpt lat="44.33576" lon="2.6291">
        <ele>641.8173828</ele>
        <time>2014-08-09T09:43:27Z</time>
      </trkpt>
      <trkpt lat="44.3358" lon="2.62911">
        <ele>642.2980957</ele>
        <time>2014-08-09T09:43:34Z</time>
      </trkpt>
      <trkpt lat="44.33584" lon="2.62917">
        <ele>643.7399902</ele>
        <time>2014-08-09T09:43:41Z</time>
      </trkpt>
      <trkpt lat="44.33584" lon="2.62921">
        <ele>643.7399902</ele>
        <time>2014-08-09T09:43:46Z</time>
      </trkpt>
      <trkpt lat="44.33586" lon="2.62922">
        <ele>645.1818848</ele>
        <time>2014-08-09T09:44:00Z</time>
      </trkpt>
    </trkseg>
  </trk>
</gpx>